<?xml version="1.0" encoding="UTF-8" standalone="no" ?>
<gpx xmlns="http://www.topografix.com/GPX/1/1" xmlns:xsi="http://www.w3.org/2001/XMLSchema-instance" xsi:schemaLocation="http://www.topografix.com/GPX/1/1 http://www.topografix.com/GPX/1/1/gpx.xsd" version="1.1" creator="VisuGPX - https://www.visugpx.com">
  <metadata>
    <name>2021-10-02T16:24:00Z</name>
  </metadata>
  <trk>
    <name><![CDATA[2021-10-02T16:24:00Z]]></name>
    <trkseg>
      <trkpt lat="46.10643" lon="6.59216">
        <ele>641.4</ele>
        <time>2021-10-02T16:24:09Z</time>
      </trkpt>
      <trkpt lat="46.1064" lon="6.59207">
        <ele>641.4</ele>
        <time>2021-10-02T16:24:14Z</time>
      </trkpt>
      <trkpt lat="46.10628" lon="6.59182">
        <ele>641.1</ele>
        <time>2021-10-02T16:24:19Z</time>
      </trkpt>
      <trkpt lat="46.10623" lon="6.59168">
        <ele>641</ele>
        <time>2021-10-02T16:24:24Z</time>
      </trkpt>
      <trkpt lat="46.10615" lon="6.59155">
        <ele>640.8</ele>
        <time>2021-10-02T16:24:29Z</time>
      </trkpt>
      <trkpt lat="46.10609" lon="6.59166">
        <ele>640.6</ele>
        <time>2021-10-02T16:24:34Z</time>
      </trkpt>
      <trkpt lat="46.10598" lon="6.59186">
        <ele>640.3</ele>
        <time>2021-10-02T16:24:39Z</time>
      </trkpt>
      <trkpt lat="46.10592" lon="6.59202">
        <ele>640.2</ele>
        <time>2021-10-02T16:24:44Z</time>
      </trkpt>
      <trkpt lat="46.10584" lon="6.59219">
        <ele>640</ele>
        <time>2021-10-02T16:24:49Z</time>
      </trkpt>
      <trkpt lat="46.10573" lon="6.59242">
        <ele>639.7</ele>
        <time>2021-10-02T16:24:54Z</time>
      </trkpt>
      <trkpt lat="46.1056" lon="6.59261">
        <ele>638.8</ele>
        <time>2021-10-02T16:24:59Z</time>
      </trkpt>
      <trkpt lat="46.10547" lon="6.59268">
        <ele>638.2</ele>
        <time>2021-10-02T16:25:04Z</time>
      </trkpt>
      <trkpt lat="46.10529" lon="6.59278">
        <ele>637.6</ele>
        <time>2021-10-02T16:25:09Z</time>
      </trkpt>
      <trkpt lat="46.10517" lon="6.59285">
        <ele>637.3</ele>
        <time>2021-10-02T16:25:14Z</time>
      </trkpt>
      <trkpt lat="46.10499" lon="6.593">
        <ele>637</ele>
        <time>2021-10-02T16:25:19Z</time>
      </trkpt>
      <trkpt lat="46.10487" lon="6.5931">
        <ele>636.5</ele>
        <time>2021-10-02T16:25:24Z</time>
      </trkpt>
      <trkpt lat="46.10469" lon="6.59319">
        <ele>635.8</ele>
        <time>2021-10-02T16:25:29Z</time>
      </trkpt>
      <trkpt lat="46.10458" lon="6.59324">
        <ele>635.2</ele>
        <time>2021-10-02T16:25:34Z</time>
      </trkpt>
      <trkpt lat="46.10443" lon="6.59339">
        <ele>634.3</ele>
        <time>2021-10-02T16:25:39Z</time>
      </trkpt>
      <trkpt lat="46.10432" lon="6.59348">
        <ele>633.8</ele>
        <time>2021-10-02T16:25:44Z</time>
      </trkpt>
      <trkpt lat="46.10415" lon="6.5936">
        <ele>633</ele>
        <time>2021-10-02T16:25:49Z</time>
      </trkpt>
      <trkpt lat="46.10401" lon="6.59368">
        <ele>632.7</ele>
        <time>2021-10-02T16:25:54Z</time>
      </trkpt>
      <trkpt lat="46.10384" lon="6.5937">
        <ele>632.4</ele>
        <time>2021-10-02T16:25:59Z</time>
      </trkpt>
      <trkpt lat="46.10372" lon="6.5937">
        <ele>632.2</ele>
        <time>2021-10-02T16:26:04Z</time>
      </trkpt>
      <trkpt lat="46.10354" lon="6.59368">
        <ele>631.9</ele>
        <time>2021-10-02T16:26:09Z</time>
      </trkpt>
      <trkpt lat="46.10345" lon="6.59361">
        <ele>631.9</ele>
        <time>2021-10-02T16:26:14Z</time>
      </trkpt>
      <trkpt lat="46.10333" lon="6.59361">
        <ele>631.7</ele>
        <time>2021-10-02T16:26:19Z</time>
      </trkpt>
      <trkpt lat="46.1032" lon="6.59374">
        <ele>631.3</ele>
        <time>2021-10-02T16:26:24Z</time>
      </trkpt>
      <trkpt lat="46.10311" lon="6.59395">
        <ele>630.8</ele>
        <time>2021-10-02T16:26:29Z</time>
      </trkpt>
      <trkpt lat="46.10311" lon="6.59411">
        <ele>630.5</ele>
        <time>2021-10-02T16:26:34Z</time>
      </trkpt>
      <trkpt lat="46.10309" lon="6.59434">
        <ele>630.6</ele>
        <time>2021-10-02T16:26:39Z</time>
      </trkpt>
      <trkpt lat="46.10304" lon="6.5945">
        <ele>630.7</ele>
        <time>2021-10-02T16:26:44Z</time>
      </trkpt>
      <trkpt lat="46.103" lon="6.59472">
        <ele>630.9</ele>
        <time>2021-10-02T16:26:49Z</time>
      </trkpt>
      <trkpt lat="46.10298" lon="6.59487">
        <ele>631</ele>
        <time>2021-10-02T16:26:54Z</time>
      </trkpt>
      <trkpt lat="46.10295" lon="6.5951">
        <ele>630.9</ele>
        <time>2021-10-02T16:26:59Z</time>
      </trkpt>
      <trkpt lat="46.10294" lon="6.59526">
        <ele>630.6</ele>
        <time>2021-10-02T16:27:04Z</time>
      </trkpt>
      <trkpt lat="46.10292" lon="6.59549">
        <ele>630.1</ele>
        <time>2021-10-02T16:27:09Z</time>
      </trkpt>
      <trkpt lat="46.10291" lon="6.59565">
        <ele>629.8</ele>
        <time>2021-10-02T16:27:14Z</time>
      </trkpt>
      <trkpt lat="46.10288" lon="6.5959">
        <ele>629.5</ele>
        <time>2021-10-02T16:27:19Z</time>
      </trkpt>
      <trkpt lat="46.10288" lon="6.59605">
        <ele>629.3</ele>
        <time>2021-10-02T16:27:24Z</time>
      </trkpt>
      <trkpt lat="46.10285" lon="6.59628">
        <ele>629</ele>
        <time>2021-10-02T16:27:29Z</time>
      </trkpt>
      <trkpt lat="46.10283" lon="6.59644">
        <ele>628.9</ele>
        <time>2021-10-02T16:27:34Z</time>
      </trkpt>
      <trkpt lat="46.10281" lon="6.59667">
        <ele>628.6</ele>
        <time>2021-10-02T16:27:39Z</time>
      </trkpt>
      <trkpt lat="46.10278" lon="6.59683">
        <ele>628.6</ele>
        <time>2021-10-02T16:27:44Z</time>
      </trkpt>
      <trkpt lat="46.10274" lon="6.59699">
        <ele>628.6</ele>
        <time>2021-10-02T16:27:49Z</time>
      </trkpt>
      <trkpt lat="46.10271" lon="6.59723">
        <ele>628.6</ele>
        <time>2021-10-02T16:27:54Z</time>
      </trkpt>
      <trkpt lat="46.10267" lon="6.59747">
        <ele>628.6</ele>
        <time>2021-10-02T16:27:59Z</time>
      </trkpt>
      <trkpt lat="46.10263" lon="6.59771">
        <ele>628</ele>
        <time>2021-10-02T16:28:07Z</time>
      </trkpt>
      <trkpt lat="46.10256" lon="6.59784">
        <ele>627.7</ele>
        <time>2021-10-02T16:28:12Z</time>
      </trkpt>
      <trkpt lat="46.10241" lon="6.59775">
        <ele>627.9</ele>
        <time>2021-10-02T16:28:17Z</time>
      </trkpt>
      <trkpt lat="46.10232" lon="6.59776">
        <ele>627.7</ele>
        <time>2021-10-02T16:28:22Z</time>
      </trkpt>
      <trkpt lat="46.10226" lon="6.59797">
        <ele>626.9</ele>
        <time>2021-10-02T16:28:27Z</time>
      </trkpt>
      <trkpt lat="46.10229" lon="6.59812">
        <ele>626.5</ele>
        <time>2021-10-02T16:28:32Z</time>
      </trkpt>
      <trkpt lat="46.10238" lon="6.59828">
        <ele>626</ele>
        <time>2021-10-02T16:28:37Z</time>
      </trkpt>
      <trkpt lat="46.10243" lon="6.59844">
        <ele>625.6</ele>
        <time>2021-10-02T16:28:42Z</time>
      </trkpt>
      <trkpt lat="46.10238" lon="6.59867">
        <ele>624.8</ele>
        <time>2021-10-02T16:28:47Z</time>
      </trkpt>
      <trkpt lat="46.10233" lon="6.59881">
        <ele>624.3</ele>
        <time>2021-10-02T16:28:52Z</time>
      </trkpt>
      <trkpt lat="46.10228" lon="6.59904">
        <ele>623.6</ele>
        <time>2021-10-02T16:28:57Z</time>
      </trkpt>
      <trkpt lat="46.10224" lon="6.59918">
        <ele>623.3</ele>
        <time>2021-10-02T16:29:02Z</time>
      </trkpt>
      <trkpt lat="46.10221" lon="6.59932">
        <ele>623.3</ele>
        <time>2021-10-02T16:29:07Z</time>
      </trkpt>
      <trkpt lat="46.10216" lon="6.59954">
        <ele>623.2</ele>
        <time>2021-10-02T16:29:12Z</time>
      </trkpt>
      <trkpt lat="46.10212" lon="6.59969">
        <ele>623.2</ele>
        <time>2021-10-02T16:29:17Z</time>
      </trkpt>
      <trkpt lat="46.10205" lon="6.5999">
        <ele>623.1</ele>
        <time>2021-10-02T16:29:22Z</time>
      </trkpt>
      <trkpt lat="46.102" lon="6.60005">
        <ele>623</ele>
        <time>2021-10-02T16:29:27Z</time>
      </trkpt>
      <trkpt lat="46.10195" lon="6.60027">
        <ele>623</ele>
        <time>2021-10-02T16:29:32Z</time>
      </trkpt>
      <trkpt lat="46.10187" lon="6.60048">
        <ele>623</ele>
        <time>2021-10-02T16:29:37Z</time>
      </trkpt>
      <trkpt lat="46.10183" lon="6.60062">
        <ele>623</ele>
        <time>2021-10-02T16:29:42Z</time>
      </trkpt>
      <trkpt lat="46.10176" lon="6.60083">
        <ele>623</ele>
        <time>2021-10-02T16:29:47Z</time>
      </trkpt>
      <trkpt lat="46.10173" lon="6.60097">
        <ele>623</ele>
        <time>2021-10-02T16:29:52Z</time>
      </trkpt>
      <trkpt lat="46.10166" lon="6.60118">
        <ele>623</ele>
        <time>2021-10-02T16:29:57Z</time>
      </trkpt>
      <trkpt lat="46.10163" lon="6.60132">
        <ele>623.1</ele>
        <time>2021-10-02T16:30:02Z</time>
      </trkpt>
      <trkpt lat="46.10157" lon="6.60153">
        <ele>623.1</ele>
        <time>2021-10-02T16:30:07Z</time>
      </trkpt>
      <trkpt lat="46.10154" lon="6.60168">
        <ele>623.1</ele>
        <time>2021-10-02T16:30:12Z</time>
      </trkpt>
      <trkpt lat="46.10147" lon="6.60191">
        <ele>623.2</ele>
        <time>2021-10-02T16:30:17Z</time>
      </trkpt>
      <trkpt lat="46.10145" lon="6.60206">
        <ele>623.1</ele>
        <time>2021-10-02T16:30:22Z</time>
      </trkpt>
      <trkpt lat="46.10143" lon="6.60229">
        <ele>623.1</ele>
        <time>2021-10-02T16:30:27Z</time>
      </trkpt>
      <trkpt lat="46.10139" lon="6.60243">
        <ele>623</ele>
        <time>2021-10-02T16:30:32Z</time>
      </trkpt>
      <trkpt lat="46.10137" lon="6.60266">
        <ele>623.2</ele>
        <time>2021-10-02T16:30:37Z</time>
      </trkpt>
      <trkpt lat="46.10134" lon="6.60281">
        <ele>623.4</ele>
        <time>2021-10-02T16:30:42Z</time>
      </trkpt>
      <trkpt lat="46.10133" lon="6.60298">
        <ele>623.6</ele>
        <time>2021-10-02T16:30:47Z</time>
      </trkpt>
      <trkpt lat="46.10131" lon="6.60321">
        <ele>623.8</ele>
        <time>2021-10-02T16:30:52Z</time>
      </trkpt>
      <trkpt lat="46.10131" lon="6.60337">
        <ele>624.1</ele>
        <time>2021-10-02T16:30:57Z</time>
      </trkpt>
      <trkpt lat="46.10128" lon="6.60359">
        <ele>624.6</ele>
        <time>2021-10-02T16:31:02Z</time>
      </trkpt>
      <trkpt lat="46.10124" lon="6.60382">
        <ele>625.2</ele>
        <time>2021-10-02T16:31:07Z</time>
      </trkpt>
      <trkpt lat="46.10122" lon="6.60398">
        <ele>625.6</ele>
        <time>2021-10-02T16:31:12Z</time>
      </trkpt>
      <trkpt lat="46.10118" lon="6.60421">
        <ele>626.3</ele>
        <time>2021-10-02T16:31:17Z</time>
      </trkpt>
      <trkpt lat="46.10114" lon="6.60436">
        <ele>626.9</ele>
        <time>2021-10-02T16:31:22Z</time>
      </trkpt>
      <trkpt lat="46.10114" lon="6.6046">
        <ele>627.6</ele>
        <time>2021-10-02T16:31:27Z</time>
      </trkpt>
      <trkpt lat="46.10111" lon="6.60475">
        <ele>628.2</ele>
        <time>2021-10-02T16:31:32Z</time>
      </trkpt>
      <trkpt lat="46.10109" lon="6.60497">
        <ele>629</ele>
        <time>2021-10-02T16:31:37Z</time>
      </trkpt>
      <trkpt lat="46.10107" lon="6.60513">
        <ele>629.6</ele>
        <time>2021-10-02T16:31:42Z</time>
      </trkpt>
      <trkpt lat="46.10106" lon="6.60535">
        <ele>630.5</ele>
        <time>2021-10-02T16:31:47Z</time>
      </trkpt>
      <trkpt lat="46.10103" lon="6.6055">
        <ele>631.1</ele>
        <time>2021-10-02T16:31:52Z</time>
      </trkpt>
      <trkpt lat="46.10101" lon="6.60573">
        <ele>632</ele>
        <time>2021-10-02T16:31:57Z</time>
      </trkpt>
      <trkpt lat="46.101" lon="6.60588">
        <ele>632.5</ele>
        <time>2021-10-02T16:32:02Z</time>
      </trkpt>
      <trkpt lat="46.10104" lon="6.60611">
        <ele>632.8</ele>
        <time>2021-10-02T16:32:07Z</time>
      </trkpt>
      <trkpt lat="46.10107" lon="6.60627">
        <ele>632.9</ele>
        <time>2021-10-02T16:32:12Z</time>
      </trkpt>
      <trkpt lat="46.1011" lon="6.60643">
        <ele>633</ele>
        <time>2021-10-02T16:32:17Z</time>
      </trkpt>
      <trkpt lat="46.10101" lon="6.60658">
        <ele>633.8</ele>
        <time>2021-10-02T16:32:22Z</time>
      </trkpt>
      <trkpt lat="46.10097" lon="6.60663">
        <ele>634.1</ele>
        <time>2021-10-02T16:32:27Z</time>
      </trkpt>
      <trkpt lat="46.10091" lon="6.60669">
        <ele>634.6</ele>
        <time>2021-10-02T16:32:32Z</time>
      </trkpt>
      <trkpt lat="46.10085" lon="6.60673">
        <ele>635.1</ele>
        <time>2021-10-02T16:32:38Z</time>
      </trkpt>
      <trkpt lat="46.10075" lon="6.60674">
        <ele>635.1</ele>
        <time>2021-10-02T16:32:43Z</time>
      </trkpt>
      <trkpt lat="46.10067" lon="6.60674">
        <ele>635.1</ele>
        <time>2021-10-02T16:32:48Z</time>
      </trkpt>
      <trkpt lat="46.10052" lon="6.60668">
        <ele>635</ele>
        <time>2021-10-02T16:32:53Z</time>
      </trkpt>
      <trkpt lat="46.10041" lon="6.60674">
        <ele>635</ele>
        <time>2021-10-02T16:32:58Z</time>
      </trkpt>
      <trkpt lat="46.10028" lon="6.6069">
        <ele>634.8</ele>
        <time>2021-10-02T16:33:03Z</time>
      </trkpt>
      <trkpt lat="46.10019" lon="6.60703">
        <ele>634.5</ele>
        <time>2021-10-02T16:33:08Z</time>
      </trkpt>
      <trkpt lat="46.10007" lon="6.60722">
        <ele>633.9</ele>
        <time>2021-10-02T16:33:13Z</time>
      </trkpt>
      <trkpt lat="46.1" lon="6.60733">
        <ele>633.4</ele>
        <time>2021-10-02T16:33:18Z</time>
      </trkpt>
      <trkpt lat="46.09989" lon="6.60752">
        <ele>632.6</ele>
        <time>2021-10-02T16:33:23Z</time>
      </trkpt>
      <trkpt lat="46.09982" lon="6.60767">
        <ele>632.5</ele>
        <time>2021-10-02T16:33:28Z</time>
      </trkpt>
      <trkpt lat="46.09972" lon="6.60787">
        <ele>632.1</ele>
        <time>2021-10-02T16:33:33Z</time>
      </trkpt>
      <trkpt lat="46.09966" lon="6.60799">
        <ele>631.9</ele>
        <time>2021-10-02T16:33:38Z</time>
      </trkpt>
      <trkpt lat="46.09957" lon="6.60818">
        <ele>631.4</ele>
        <time>2021-10-02T16:33:43Z</time>
      </trkpt>
      <trkpt lat="46.09949" lon="6.60826">
        <ele>631</ele>
        <time>2021-10-02T16:33:48Z</time>
      </trkpt>
      <trkpt lat="46.09941" lon="6.60837">
        <ele>630.5</ele>
        <time>2021-10-02T16:33:55Z</time>
      </trkpt>
      <trkpt lat="46.09929" lon="6.60848">
        <ele>629.8</ele>
        <time>2021-10-02T16:34:00Z</time>
      </trkpt>
      <trkpt lat="46.09924" lon="6.60859">
        <ele>629.5</ele>
        <time>2021-10-02T16:34:05Z</time>
      </trkpt>
      <trkpt lat="46.09928" lon="6.60881">
        <ele>629.8</ele>
        <time>2021-10-02T16:34:10Z</time>
      </trkpt>
      <trkpt lat="46.09929" lon="6.60894">
        <ele>629.9</ele>
        <time>2021-10-02T16:34:15Z</time>
      </trkpt>
      <trkpt lat="46.09931" lon="6.60903">
        <ele>630.1</ele>
        <time>2021-10-02T16:34:20Z</time>
      </trkpt>
      <trkpt lat="46.09924" lon="6.60932">
        <ele>630.5</ele>
        <time>2021-10-02T16:34:30Z</time>
      </trkpt>
      <trkpt lat="46.09925" lon="6.60946">
        <ele>631.4</ele>
        <time>2021-10-02T16:34:35Z</time>
      </trkpt>
      <trkpt lat="46.09926" lon="6.60969">
        <ele>632.8</ele>
        <time>2021-10-02T16:34:40Z</time>
      </trkpt>
      <trkpt lat="46.09928" lon="6.60986">
        <ele>633.9</ele>
        <time>2021-10-02T16:34:45Z</time>
      </trkpt>
      <trkpt lat="46.09929" lon="6.61012">
        <ele>634.4</ele>
        <time>2021-10-02T16:34:50Z</time>
      </trkpt>
      <trkpt lat="46.0993" lon="6.61028">
        <ele>634.1</ele>
        <time>2021-10-02T16:34:55Z</time>
      </trkpt>
      <trkpt lat="46.09935" lon="6.61048">
        <ele>634</ele>
        <time>2021-10-02T16:35:00Z</time>
      </trkpt>
      <trkpt lat="46.09938" lon="6.61065">
        <ele>633.9</ele>
        <time>2021-10-02T16:35:05Z</time>
      </trkpt>
      <trkpt lat="46.09943" lon="6.6109">
        <ele>634</ele>
        <time>2021-10-02T16:35:10Z</time>
      </trkpt>
      <trkpt lat="46.09943" lon="6.61107">
        <ele>633.4</ele>
        <time>2021-10-02T16:35:15Z</time>
      </trkpt>
      <trkpt lat="46.09945" lon="6.6113">
        <ele>632.9</ele>
        <time>2021-10-02T16:35:20Z</time>
      </trkpt>
      <trkpt lat="46.09944" lon="6.61145">
        <ele>632.3</ele>
        <time>2021-10-02T16:35:25Z</time>
      </trkpt>
      <trkpt lat="46.09948" lon="6.61167">
        <ele>632</ele>
        <time>2021-10-02T16:35:30Z</time>
      </trkpt>
      <trkpt lat="46.0995" lon="6.6118">
        <ele>632.3</ele>
        <time>2021-10-02T16:35:35Z</time>
      </trkpt>
      <trkpt lat="46.0995" lon="6.612">
        <ele>632.5</ele>
        <time>2021-10-02T16:35:40Z</time>
      </trkpt>
      <trkpt lat="46.09953" lon="6.61214">
        <ele>632.8</ele>
        <time>2021-10-02T16:35:45Z</time>
      </trkpt>
      <trkpt lat="46.09954" lon="6.61234">
        <ele>633.1</ele>
        <time>2021-10-02T16:35:50Z</time>
      </trkpt>
      <trkpt lat="46.09956" lon="6.61247">
        <ele>633.3</ele>
        <time>2021-10-02T16:35:55Z</time>
      </trkpt>
      <trkpt lat="46.09961" lon="6.61269">
        <ele>633.3</ele>
        <time>2021-10-02T16:36:00Z</time>
      </trkpt>
      <trkpt lat="46.09963" lon="6.61281">
        <ele>633.2</ele>
        <time>2021-10-02T16:36:05Z</time>
      </trkpt>
      <trkpt lat="46.09962" lon="6.61302">
        <ele>632.7</ele>
        <time>2021-10-02T16:36:10Z</time>
      </trkpt>
      <trkpt lat="46.09961" lon="6.61315">
        <ele>632.5</ele>
        <time>2021-10-02T16:36:15Z</time>
      </trkpt>
      <trkpt lat="46.09966" lon="6.61333">
        <ele>632.4</ele>
        <time>2021-10-02T16:36:20Z</time>
      </trkpt>
      <trkpt lat="46.09966" lon="6.61346">
        <ele>632.8</ele>
        <time>2021-10-02T16:36:25Z</time>
      </trkpt>
      <trkpt lat="46.09971" lon="6.61363">
        <ele>633.5</ele>
        <time>2021-10-02T16:36:30Z</time>
      </trkpt>
      <trkpt lat="46.09971" lon="6.61375">
        <ele>633.9</ele>
        <time>2021-10-02T16:36:35Z</time>
      </trkpt>
      <trkpt lat="46.09974" lon="6.61394">
        <ele>634.7</ele>
        <time>2021-10-02T16:36:40Z</time>
      </trkpt>
      <trkpt lat="46.09976" lon="6.61407">
        <ele>635.3</ele>
        <time>2021-10-02T16:36:45Z</time>
      </trkpt>
      <trkpt lat="46.09976" lon="6.61428">
        <ele>635.7</ele>
        <time>2021-10-02T16:36:50Z</time>
      </trkpt>
      <trkpt lat="46.09977" lon="6.61441">
        <ele>636</ele>
        <time>2021-10-02T16:36:55Z</time>
      </trkpt>
      <trkpt lat="46.09975" lon="6.61463">
        <ele>636.3</ele>
        <time>2021-10-02T16:37:00Z</time>
      </trkpt>
      <trkpt lat="46.09978" lon="6.61479">
        <ele>636.7</ele>
        <time>2021-10-02T16:37:05Z</time>
      </trkpt>
      <trkpt lat="46.09977" lon="6.61499">
        <ele>637</ele>
        <time>2021-10-02T16:37:10Z</time>
      </trkpt>
      <trkpt lat="46.09977" lon="6.61513">
        <ele>636.9</ele>
        <time>2021-10-02T16:37:15Z</time>
      </trkpt>
      <trkpt lat="46.09978" lon="6.61534">
        <ele>636.7</ele>
        <time>2021-10-02T16:37:20Z</time>
      </trkpt>
      <trkpt lat="46.09978" lon="6.61549">
        <ele>636.6</ele>
        <time>2021-10-02T16:37:25Z</time>
      </trkpt>
      <trkpt lat="46.09979" lon="6.61568">
        <ele>636.4</ele>
        <time>2021-10-02T16:37:30Z</time>
      </trkpt>
      <trkpt lat="46.09981" lon="6.61583">
        <ele>636.4</ele>
        <time>2021-10-02T16:37:35Z</time>
      </trkpt>
      <trkpt lat="46.09983" lon="6.61604">
        <ele>635.7</ele>
        <time>2021-10-02T16:37:40Z</time>
      </trkpt>
      <trkpt lat="46.09983" lon="6.6162">
        <ele>635.1</ele>
        <time>2021-10-02T16:37:45Z</time>
      </trkpt>
      <trkpt lat="46.09983" lon="6.61642">
        <ele>634.2</ele>
        <time>2021-10-02T16:37:50Z</time>
      </trkpt>
      <trkpt lat="46.09982" lon="6.61657">
        <ele>633.5</ele>
        <time>2021-10-02T16:37:55Z</time>
      </trkpt>
      <trkpt lat="46.09985" lon="6.61676">
        <ele>633.3</ele>
        <time>2021-10-02T16:38:00Z</time>
      </trkpt>
      <trkpt lat="46.09984" lon="6.61686">
        <ele>633.2</ele>
        <time>2021-10-02T16:38:05Z</time>
      </trkpt>
      <trkpt lat="46.09988" lon="6.61705">
        <ele>633.4</ele>
        <time>2021-10-02T16:38:10Z</time>
      </trkpt>
      <trkpt lat="46.09992" lon="6.61719">
        <ele>633.6</ele>
        <time>2021-10-02T16:38:15Z</time>
      </trkpt>
      <trkpt lat="46.1" lon="6.61743">
        <ele>634</ele>
        <time>2021-10-02T16:38:20Z</time>
      </trkpt>
      <trkpt lat="46.1" lon="6.61758">
        <ele>634</ele>
        <time>2021-10-02T16:38:25Z</time>
      </trkpt>
      <trkpt lat="46.10001" lon="6.61781">
        <ele>634.1</ele>
        <time>2021-10-02T16:38:30Z</time>
      </trkpt>
      <trkpt lat="46.09993" lon="6.618">
        <ele>633.6</ele>
        <time>2021-10-02T16:38:35Z</time>
      </trkpt>
      <trkpt lat="46.09989" lon="6.61826">
        <ele>633.4</ele>
        <time>2021-10-02T16:38:40Z</time>
      </trkpt>
      <trkpt lat="46.09986" lon="6.61847">
        <ele>632.9</ele>
        <time>2021-10-02T16:38:45Z</time>
      </trkpt>
      <trkpt lat="46.09983" lon="6.61873">
        <ele>632.1</ele>
        <time>2021-10-02T16:38:50Z</time>
      </trkpt>
      <trkpt lat="46.0998" lon="6.61889">
        <ele>631.7</ele>
        <time>2021-10-02T16:38:55Z</time>
      </trkpt>
      <trkpt lat="46.09982" lon="6.61914">
        <ele>631.1</ele>
        <time>2021-10-02T16:39:00Z</time>
      </trkpt>
      <trkpt lat="46.09988" lon="6.6193">
        <ele>631</ele>
        <time>2021-10-02T16:39:05Z</time>
      </trkpt>
      <trkpt lat="46.0999" lon="6.61951">
        <ele>631</ele>
        <time>2021-10-02T16:39:10Z</time>
      </trkpt>
      <trkpt lat="46.09998" lon="6.61966">
        <ele>631</ele>
        <time>2021-10-02T16:39:15Z</time>
      </trkpt>
      <trkpt lat="46.10005" lon="6.6199">
        <ele>631.1</ele>
        <time>2021-10-02T16:39:20Z</time>
      </trkpt>
      <trkpt lat="46.10009" lon="6.62005">
        <ele>631.3</ele>
        <time>2021-10-02T16:39:25Z</time>
      </trkpt>
      <trkpt lat="46.10014" lon="6.62032">
        <ele>631.7</ele>
        <time>2021-10-02T16:39:30Z</time>
      </trkpt>
      <trkpt lat="46.10002" lon="6.62044">
        <ele>631.6</ele>
        <time>2021-10-02T16:39:38Z</time>
      </trkpt>
      <trkpt lat="46.09996" lon="6.6205">
        <ele>631.6</ele>
        <time>2021-10-02T16:39:43Z</time>
      </trkpt>
      <trkpt lat="46.09992" lon="6.62057">
        <ele>631.7</ele>
        <time>2021-10-02T16:39:48Z</time>
      </trkpt>
      <trkpt lat="46.09977" lon="6.62072">
        <ele>631.7</ele>
        <time>2021-10-02T16:39:53Z</time>
      </trkpt>
      <trkpt lat="46.09968" lon="6.62081">
        <ele>631.6</ele>
        <time>2021-10-02T16:39:58Z</time>
      </trkpt>
      <trkpt lat="46.09962" lon="6.62094">
        <ele>631.5</ele>
        <time>2021-10-02T16:40:03Z</time>
      </trkpt>
      <trkpt lat="46.0996" lon="6.62122">
        <ele>631.5</ele>
        <time>2021-10-02T16:40:08Z</time>
      </trkpt>
      <trkpt lat="46.09958" lon="6.62148">
        <ele>631.5</ele>
        <time>2021-10-02T16:40:13Z</time>
      </trkpt>
      <trkpt lat="46.0996" lon="6.62161">
        <ele>631.5</ele>
        <time>2021-10-02T16:40:18Z</time>
      </trkpt>
      <trkpt lat="46.09963" lon="6.62182">
        <ele>631.9</ele>
        <time>2021-10-02T16:40:23Z</time>
      </trkpt>
      <trkpt lat="46.09965" lon="6.62195">
        <ele>632.2</ele>
        <time>2021-10-02T16:40:28Z</time>
      </trkpt>
      <trkpt lat="46.09972" lon="6.62213">
        <ele>632.6</ele>
        <time>2021-10-02T16:40:33Z</time>
      </trkpt>
      <trkpt lat="46.09976" lon="6.62225">
        <ele>632.9</ele>
        <time>2021-10-02T16:40:38Z</time>
      </trkpt>
      <trkpt lat="46.09986" lon="6.62242">
        <ele>633.1</ele>
        <time>2021-10-02T16:40:43Z</time>
      </trkpt>
      <trkpt lat="46.09991" lon="6.62255">
        <ele>633.3</ele>
        <time>2021-10-02T16:40:48Z</time>
      </trkpt>
      <trkpt lat="46.09993" lon="6.62275">
        <ele>633.8</ele>
        <time>2021-10-02T16:40:53Z</time>
      </trkpt>
      <trkpt lat="46.09998" lon="6.62287">
        <ele>634</ele>
        <time>2021-10-02T16:40:58Z</time>
      </trkpt>
      <trkpt lat="46.10001" lon="6.62306">
        <ele>634.3</ele>
        <time>2021-10-02T16:41:03Z</time>
      </trkpt>
      <trkpt lat="46.10001" lon="6.62319">
        <ele>634.6</ele>
        <time>2021-10-02T16:41:08Z</time>
      </trkpt>
      <trkpt lat="46.10002" lon="6.62332">
        <ele>634.9</ele>
        <time>2021-10-02T16:41:13Z</time>
      </trkpt>
      <trkpt lat="46.10006" lon="6.62351">
        <ele>635.5</ele>
        <time>2021-10-02T16:41:18Z</time>
      </trkpt>
      <trkpt lat="46.10005" lon="6.62364">
        <ele>636</ele>
        <time>2021-10-02T16:41:23Z</time>
      </trkpt>
      <trkpt lat="46.10006" lon="6.62385">
        <ele>636.7</ele>
        <time>2021-10-02T16:41:28Z</time>
      </trkpt>
      <trkpt lat="46.10005" lon="6.62399">
        <ele>637.2</ele>
        <time>2021-10-02T16:41:33Z</time>
      </trkpt>
      <trkpt lat="46.10006" lon="6.62421">
        <ele>637.9</ele>
        <time>2021-10-02T16:41:38Z</time>
      </trkpt>
      <trkpt lat="46.10006" lon="6.62443">
        <ele>638.4</ele>
        <time>2021-10-02T16:41:43Z</time>
      </trkpt>
      <trkpt lat="46.10006" lon="6.62457">
        <ele>638.7</ele>
        <time>2021-10-02T16:41:48Z</time>
      </trkpt>
      <trkpt lat="46.10005" lon="6.62478">
        <ele>639.2</ele>
        <time>2021-10-02T16:41:53Z</time>
      </trkpt>
      <trkpt lat="46.10004" lon="6.62493">
        <ele>639.6</ele>
        <time>2021-10-02T16:41:58Z</time>
      </trkpt>
      <trkpt lat="46.10004" lon="6.62516">
        <ele>640.1</ele>
        <time>2021-10-02T16:42:03Z</time>
      </trkpt>
      <trkpt lat="46.10008" lon="6.62533">
        <ele>640.3</ele>
        <time>2021-10-02T16:42:08Z</time>
      </trkpt>
      <trkpt lat="46.10014" lon="6.62553">
        <ele>640.5</ele>
        <time>2021-10-02T16:42:13Z</time>
      </trkpt>
      <trkpt lat="46.10013" lon="6.62566">
        <ele>640.9</ele>
        <time>2021-10-02T16:42:18Z</time>
      </trkpt>
      <trkpt lat="46.10017" lon="6.62582">
        <ele>641.1</ele>
        <time>2021-10-02T16:42:23Z</time>
      </trkpt>
      <trkpt lat="46.10018" lon="6.62597">
        <ele>641.5</ele>
        <time>2021-10-02T16:42:28Z</time>
      </trkpt>
      <trkpt lat="46.10013" lon="6.62609">
        <ele>642.1</ele>
        <time>2021-10-02T16:42:33Z</time>
      </trkpt>
      <trkpt lat="46.1001" lon="6.62622">
        <ele>642.5</ele>
        <time>2021-10-02T16:42:38Z</time>
      </trkpt>
      <trkpt lat="46.10009" lon="6.62638">
        <ele>643</ele>
        <time>2021-10-02T16:42:45Z</time>
      </trkpt>
      <trkpt lat="46.10007" lon="6.62657">
        <ele>643.5</ele>
        <time>2021-10-02T16:42:50Z</time>
      </trkpt>
      <trkpt lat="46.10004" lon="6.62669">
        <ele>643.9</ele>
        <time>2021-10-02T16:42:55Z</time>
      </trkpt>
      <trkpt lat="46.1" lon="6.62681">
        <ele>644.2</ele>
        <time>2021-10-02T16:43:00Z</time>
      </trkpt>
      <trkpt lat="46.09998" lon="6.62693">
        <ele>644.3</ele>
        <time>2021-10-02T16:43:05Z</time>
      </trkpt>
      <trkpt lat="46.09996" lon="6.62714">
        <ele>644.6</ele>
        <time>2021-10-02T16:43:10Z</time>
      </trkpt>
      <trkpt lat="46.09999" lon="6.62729">
        <ele>644.8</ele>
        <time>2021-10-02T16:43:15Z</time>
      </trkpt>
      <trkpt lat="46.10005" lon="6.62751">
        <ele>644.9</ele>
        <time>2021-10-02T16:43:20Z</time>
      </trkpt>
      <trkpt lat="46.10003" lon="6.62765">
        <ele>644.6</ele>
        <time>2021-10-02T16:43:25Z</time>
      </trkpt>
      <trkpt lat="46.10006" lon="6.62786">
        <ele>644.1</ele>
        <time>2021-10-02T16:43:30Z</time>
      </trkpt>
      <trkpt lat="46.10003" lon="6.62798">
        <ele>643.9</ele>
        <time>2021-10-02T16:43:35Z</time>
      </trkpt>
      <trkpt lat="46.10005" lon="6.62816">
        <ele>643.5</ele>
        <time>2021-10-02T16:43:40Z</time>
      </trkpt>
      <trkpt lat="46.10004" lon="6.62825">
        <ele>643.3</ele>
        <time>2021-10-02T16:43:45Z</time>
      </trkpt>
      <trkpt lat="46.10006" lon="6.62845">
        <ele>642.9</ele>
        <time>2021-10-02T16:43:50Z</time>
      </trkpt>
      <trkpt lat="46.10001" lon="6.62856">
        <ele>642.5</ele>
        <time>2021-10-02T16:43:55Z</time>
      </trkpt>
      <trkpt lat="46.10001" lon="6.62879">
        <ele>641.9</ele>
        <time>2021-10-02T16:44:00Z</time>
      </trkpt>
      <trkpt lat="46.10001" lon="6.62891">
        <ele>641.6</ele>
        <time>2021-10-02T16:44:05Z</time>
      </trkpt>
      <trkpt lat="46.09996" lon="6.62909">
        <ele>641.3</ele>
        <time>2021-10-02T16:44:10Z</time>
      </trkpt>
      <trkpt lat="46.1" lon="6.62919">
        <ele>641.1</ele>
        <time>2021-10-02T16:44:15Z</time>
      </trkpt>
      <trkpt lat="46.09999" lon="6.62941">
        <ele>641.9</ele>
        <time>2021-10-02T16:44:20Z</time>
      </trkpt>
      <trkpt lat="46.09996" lon="6.62973">
        <ele>643.1</ele>
        <time>2021-10-02T16:44:25Z</time>
      </trkpt>
      <trkpt lat="46.09985" lon="6.63002">
        <ele>644.4</ele>
        <time>2021-10-02T16:44:30Z</time>
      </trkpt>
      <trkpt lat="46.09982" lon="6.63016">
        <ele>644.5</ele>
        <time>2021-10-02T16:44:35Z</time>
      </trkpt>
      <trkpt lat="46.09981" lon="6.63038">
        <ele>644.7</ele>
        <time>2021-10-02T16:44:40Z</time>
      </trkpt>
      <trkpt lat="46.09978" lon="6.63053">
        <ele>644.9</ele>
        <time>2021-10-02T16:44:45Z</time>
      </trkpt>
      <trkpt lat="46.09975" lon="6.63073">
        <ele>645.1</ele>
        <time>2021-10-02T16:44:50Z</time>
      </trkpt>
      <trkpt lat="46.09973" lon="6.63087">
        <ele>645.3</ele>
        <time>2021-10-02T16:44:55Z</time>
      </trkpt>
      <trkpt lat="46.09966" lon="6.63107">
        <ele>645.6</ele>
        <time>2021-10-02T16:45:00Z</time>
      </trkpt>
      <trkpt lat="46.09963" lon="6.63123">
        <ele>645.7</ele>
        <time>2021-10-02T16:45:05Z</time>
      </trkpt>
      <trkpt lat="46.09962" lon="6.63143">
        <ele>645.7</ele>
        <time>2021-10-02T16:45:10Z</time>
      </trkpt>
      <trkpt lat="46.0996" lon="6.63158">
        <ele>645.9</ele>
        <time>2021-10-02T16:45:15Z</time>
      </trkpt>
      <trkpt lat="46.0995" lon="6.63176">
        <ele>646.7</ele>
        <time>2021-10-02T16:45:20Z</time>
      </trkpt>
      <trkpt lat="46.09946" lon="6.63188">
        <ele>647.1</ele>
        <time>2021-10-02T16:45:25Z</time>
      </trkpt>
      <trkpt lat="46.09945" lon="6.63205">
        <ele>647.3</ele>
        <time>2021-10-02T16:45:30Z</time>
      </trkpt>
      <trkpt lat="46.09943" lon="6.63218">
        <ele>647.5</ele>
        <time>2021-10-02T16:45:35Z</time>
      </trkpt>
      <trkpt lat="46.0994" lon="6.63237">
        <ele>647.8</ele>
        <time>2021-10-02T16:45:40Z</time>
      </trkpt>
      <trkpt lat="46.09933" lon="6.63249">
        <ele>648.2</ele>
        <time>2021-10-02T16:45:45Z</time>
      </trkpt>
      <trkpt lat="46.09924" lon="6.63268">
        <ele>648.5</ele>
        <time>2021-10-02T16:45:50Z</time>
      </trkpt>
      <trkpt lat="46.09922" lon="6.63282">
        <ele>648.4</ele>
        <time>2021-10-02T16:45:55Z</time>
      </trkpt>
      <trkpt lat="46.09918" lon="6.63303">
        <ele>648.3</ele>
        <time>2021-10-02T16:46:00Z</time>
      </trkpt>
      <trkpt lat="46.09916" lon="6.63318">
        <ele>648.2</ele>
        <time>2021-10-02T16:46:05Z</time>
      </trkpt>
      <trkpt lat="46.09917" lon="6.6334">
        <ele>647.6</ele>
        <time>2021-10-02T16:46:10Z</time>
      </trkpt>
      <trkpt lat="46.09918" lon="6.63356">
        <ele>646.6</ele>
        <time>2021-10-02T16:46:15Z</time>
      </trkpt>
      <trkpt lat="46.09915" lon="6.63374">
        <ele>645.6</ele>
        <time>2021-10-02T16:46:20Z</time>
      </trkpt>
      <trkpt lat="46.09915" lon="6.63387">
        <ele>644.8</ele>
        <time>2021-10-02T16:46:25Z</time>
      </trkpt>
      <trkpt lat="46.09911" lon="6.63409">
        <ele>643.6</ele>
        <time>2021-10-02T16:46:30Z</time>
      </trkpt>
      <trkpt lat="46.09906" lon="6.6342">
        <ele>643.2</ele>
        <time>2021-10-02T16:46:35Z</time>
      </trkpt>
      <trkpt lat="46.09905" lon="6.6343">
        <ele>643.2</ele>
        <time>2021-10-02T16:46:40Z</time>
      </trkpt>
      <trkpt lat="46.09904" lon="6.63443">
        <ele>643.2</ele>
        <time>2021-10-02T16:46:45Z</time>
      </trkpt>
      <trkpt lat="46.09908" lon="6.63466">
        <ele>642.9</ele>
        <time>2021-10-02T16:46:50Z</time>
      </trkpt>
      <trkpt lat="46.09911" lon="6.63479">
        <ele>642.6</ele>
        <time>2021-10-02T16:46:55Z</time>
      </trkpt>
      <trkpt lat="46.09915" lon="6.63497">
        <ele>642.1</ele>
        <time>2021-10-02T16:47:00Z</time>
      </trkpt>
      <trkpt lat="46.0991" lon="6.63511">
        <ele>643</ele>
        <time>2021-10-02T16:47:05Z</time>
      </trkpt>
      <trkpt lat="46.09915" lon="6.63533">
        <ele>643.7</ele>
        <time>2021-10-02T16:47:10Z</time>
      </trkpt>
      <trkpt lat="46.09917" lon="6.63553">
        <ele>644.6</ele>
        <time>2021-10-02T16:47:15Z</time>
      </trkpt>
      <trkpt lat="46.09914" lon="6.63576">
        <ele>645.8</ele>
        <time>2021-10-02T16:47:20Z</time>
      </trkpt>
      <trkpt lat="46.09911" lon="6.63589">
        <ele>646.5</ele>
        <time>2021-10-02T16:47:25Z</time>
      </trkpt>
      <trkpt lat="46.09909" lon="6.63612">
        <ele>647.3</ele>
        <time>2021-10-02T16:47:30Z</time>
      </trkpt>
      <trkpt lat="46.09903" lon="6.63627">
        <ele>648.1</ele>
        <time>2021-10-02T16:47:35Z</time>
      </trkpt>
      <trkpt lat="46.09895" lon="6.63652">
        <ele>649.1</ele>
        <time>2021-10-02T16:47:41Z</time>
      </trkpt>
      <trkpt lat="46.09893" lon="6.63668">
        <ele>649.5</ele>
        <time>2021-10-02T16:47:46Z</time>
      </trkpt>
      <trkpt lat="46.09884" lon="6.63691">
        <ele>649</ele>
        <time>2021-10-02T16:47:51Z</time>
      </trkpt>
      <trkpt lat="46.09883" lon="6.63702">
        <ele>648.6</ele>
        <time>2021-10-02T16:47:56Z</time>
      </trkpt>
      <trkpt lat="46.09876" lon="6.63722">
        <ele>648.3</ele>
        <time>2021-10-02T16:48:01Z</time>
      </trkpt>
      <trkpt lat="46.09871" lon="6.63736">
        <ele>648.1</ele>
        <time>2021-10-02T16:48:06Z</time>
      </trkpt>
      <trkpt lat="46.09867" lon="6.63756">
        <ele>648.1</ele>
        <time>2021-10-02T16:48:11Z</time>
      </trkpt>
      <trkpt lat="46.09863" lon="6.63773">
        <ele>648.7</ele>
        <time>2021-10-02T16:48:16Z</time>
      </trkpt>
      <trkpt lat="46.09859" lon="6.63795">
        <ele>649.4</ele>
        <time>2021-10-02T16:48:21Z</time>
      </trkpt>
      <trkpt lat="46.09857" lon="6.63809">
        <ele>649.8</ele>
        <time>2021-10-02T16:48:26Z</time>
      </trkpt>
      <trkpt lat="46.09851" lon="6.63832">
        <ele>650.7</ele>
        <time>2021-10-02T16:48:31Z</time>
      </trkpt>
      <trkpt lat="46.09847" lon="6.63846">
        <ele>650.9</ele>
        <time>2021-10-02T16:48:36Z</time>
      </trkpt>
      <trkpt lat="46.09842" lon="6.63859">
        <ele>651.1</ele>
        <time>2021-10-02T16:48:41Z</time>
      </trkpt>
      <trkpt lat="46.09834" lon="6.63881">
        <ele>651.4</ele>
        <time>2021-10-02T16:48:46Z</time>
      </trkpt>
      <trkpt lat="46.09835" lon="6.63902">
        <ele>651.1</ele>
        <time>2021-10-02T16:48:51Z</time>
      </trkpt>
      <trkpt lat="46.09831" lon="6.63919">
        <ele>651</ele>
        <time>2021-10-02T16:48:56Z</time>
      </trkpt>
      <trkpt lat="46.09824" lon="6.6394">
        <ele>650.6</ele>
        <time>2021-10-02T16:49:01Z</time>
      </trkpt>
      <trkpt lat="46.09822" lon="6.63954">
        <ele>650.2</ele>
        <time>2021-10-02T16:49:06Z</time>
      </trkpt>
      <trkpt lat="46.09822" lon="6.63974">
        <ele>649.5</ele>
        <time>2021-10-02T16:49:11Z</time>
      </trkpt>
      <trkpt lat="46.09821" lon="6.63987">
        <ele>649.2</ele>
        <time>2021-10-02T16:49:16Z</time>
      </trkpt>
      <trkpt lat="46.09815" lon="6.64007">
        <ele>649.2</ele>
        <time>2021-10-02T16:49:21Z</time>
      </trkpt>
      <trkpt lat="46.09812" lon="6.64021">
        <ele>649.5</ele>
        <time>2021-10-02T16:49:26Z</time>
      </trkpt>
      <trkpt lat="46.09807" lon="6.64037">
        <ele>649.9</ele>
        <time>2021-10-02T16:49:31Z</time>
      </trkpt>
      <trkpt lat="46.09807" lon="6.6405">
        <ele>650</ele>
        <time>2021-10-02T16:49:36Z</time>
      </trkpt>
      <trkpt lat="46.09811" lon="6.64068">
        <ele>650</ele>
        <time>2021-10-02T16:49:41Z</time>
      </trkpt>
      <trkpt lat="46.09808" lon="6.64084">
        <ele>650.2</ele>
        <time>2021-10-02T16:49:46Z</time>
      </trkpt>
      <trkpt lat="46.09803" lon="6.64102">
        <ele>650.4</ele>
        <time>2021-10-02T16:49:51Z</time>
      </trkpt>
      <trkpt lat="46.09798" lon="6.64113">
        <ele>650.6</ele>
        <time>2021-10-02T16:49:56Z</time>
      </trkpt>
      <trkpt lat="46.09789" lon="6.64132">
        <ele>651.2</ele>
        <time>2021-10-02T16:50:01Z</time>
      </trkpt>
      <trkpt lat="46.09786" lon="6.64145">
        <ele>651.4</ele>
        <time>2021-10-02T16:50:06Z</time>
      </trkpt>
      <trkpt lat="46.09782" lon="6.64159">
        <ele>651.7</ele>
        <time>2021-10-02T16:50:11Z</time>
      </trkpt>
      <trkpt lat="46.09779" lon="6.64176">
        <ele>652.1</ele>
        <time>2021-10-02T16:50:16Z</time>
      </trkpt>
      <trkpt lat="46.09776" lon="6.64189">
        <ele>652.6</ele>
        <time>2021-10-02T16:50:21Z</time>
      </trkpt>
      <trkpt lat="46.09773" lon="6.64206">
        <ele>653.1</ele>
        <time>2021-10-02T16:50:26Z</time>
      </trkpt>
      <trkpt lat="46.09775" lon="6.64227">
        <ele>653.4</ele>
        <time>2021-10-02T16:50:31Z</time>
      </trkpt>
      <trkpt lat="46.09773" lon="6.64238">
        <ele>653.9</ele>
        <time>2021-10-02T16:50:36Z</time>
      </trkpt>
      <trkpt lat="46.09769" lon="6.64257">
        <ele>654.3</ele>
        <time>2021-10-02T16:50:41Z</time>
      </trkpt>
      <trkpt lat="46.09765" lon="6.64272">
        <ele>654.4</ele>
        <time>2021-10-02T16:50:46Z</time>
      </trkpt>
      <trkpt lat="46.09763" lon="6.6429">
        <ele>654.3</ele>
        <time>2021-10-02T16:50:51Z</time>
      </trkpt>
      <trkpt lat="46.0976" lon="6.64303">
        <ele>654.4</ele>
        <time>2021-10-02T16:50:56Z</time>
      </trkpt>
      <trkpt lat="46.09758" lon="6.64325">
        <ele>654.3</ele>
        <time>2021-10-02T16:51:01Z</time>
      </trkpt>
      <trkpt lat="46.09758" lon="6.64338">
        <ele>654.3</ele>
        <time>2021-10-02T16:51:06Z</time>
      </trkpt>
      <trkpt lat="46.09755" lon="6.64357">
        <ele>654.8</ele>
        <time>2021-10-02T16:51:11Z</time>
      </trkpt>
      <trkpt lat="46.09752" lon="6.64371">
        <ele>655.3</ele>
        <time>2021-10-02T16:51:16Z</time>
      </trkpt>
      <trkpt lat="46.0975" lon="6.64392">
        <ele>655.7</ele>
        <time>2021-10-02T16:51:21Z</time>
      </trkpt>
      <trkpt lat="46.09747" lon="6.64404">
        <ele>655.8</ele>
        <time>2021-10-02T16:51:26Z</time>
      </trkpt>
      <trkpt lat="46.09743" lon="6.64422">
        <ele>655.6</ele>
        <time>2021-10-02T16:51:31Z</time>
      </trkpt>
      <trkpt lat="46.09738" lon="6.64434">
        <ele>654.9</ele>
        <time>2021-10-02T16:51:36Z</time>
      </trkpt>
      <trkpt lat="46.09737" lon="6.64455">
        <ele>653.9</ele>
        <time>2021-10-02T16:51:41Z</time>
      </trkpt>
      <trkpt lat="46.09735" lon="6.64468">
        <ele>653.2</ele>
        <time>2021-10-02T16:51:46Z</time>
      </trkpt>
      <trkpt lat="46.09739" lon="6.64484">
        <ele>652.3</ele>
        <time>2021-10-02T16:51:51Z</time>
      </trkpt>
      <trkpt lat="46.0974" lon="6.64507">
        <ele>651.4</ele>
        <time>2021-10-02T16:51:56Z</time>
      </trkpt>
      <trkpt lat="46.09741" lon="6.64529">
        <ele>651.5</ele>
        <time>2021-10-02T16:52:01Z</time>
      </trkpt>
      <trkpt lat="46.09743" lon="6.64541">
        <ele>651.4</ele>
        <time>2021-10-02T16:52:06Z</time>
      </trkpt>
      <trkpt lat="46.0974" lon="6.6456">
        <ele>651.7</ele>
        <time>2021-10-02T16:52:11Z</time>
      </trkpt>
      <trkpt lat="46.09742" lon="6.64573">
        <ele>651.6</ele>
        <time>2021-10-02T16:52:16Z</time>
      </trkpt>
      <trkpt lat="46.09739" lon="6.64596">
        <ele>651.8</ele>
        <time>2021-10-02T16:52:21Z</time>
      </trkpt>
      <trkpt lat="46.09733" lon="6.64608">
        <ele>652.3</ele>
        <time>2021-10-02T16:52:26Z</time>
      </trkpt>
      <trkpt lat="46.09725" lon="6.64627">
        <ele>652.9</ele>
        <time>2021-10-02T16:52:31Z</time>
      </trkpt>
      <trkpt lat="46.09724" lon="6.64642">
        <ele>652.9</ele>
        <time>2021-10-02T16:52:36Z</time>
      </trkpt>
      <trkpt lat="46.09715" lon="6.64664">
        <ele>653.8</ele>
        <time>2021-10-02T16:52:41Z</time>
      </trkpt>
      <trkpt lat="46.09713" lon="6.64677">
        <ele>653.5</ele>
        <time>2021-10-02T16:52:46Z</time>
      </trkpt>
      <trkpt lat="46.09707" lon="6.647">
        <ele>653.2</ele>
        <time>2021-10-02T16:52:51Z</time>
      </trkpt>
      <trkpt lat="46.09704" lon="6.64716">
        <ele>652.9</ele>
        <time>2021-10-02T16:52:56Z</time>
      </trkpt>
      <trkpt lat="46.09701" lon="6.64737">
        <ele>652.3</ele>
        <time>2021-10-02T16:53:01Z</time>
      </trkpt>
      <trkpt lat="46.09698" lon="6.64752">
        <ele>652</ele>
        <time>2021-10-02T16:53:06Z</time>
      </trkpt>
      <trkpt lat="46.09696" lon="6.64768">
        <ele>651.4</ele>
        <time>2021-10-02T16:53:11Z</time>
      </trkpt>
      <trkpt lat="46.09692" lon="6.64788">
        <ele>650.8</ele>
        <time>2021-10-02T16:53:16Z</time>
      </trkpt>
      <trkpt lat="46.09686" lon="6.64801">
        <ele>650.3</ele>
        <time>2021-10-02T16:53:21Z</time>
      </trkpt>
      <trkpt lat="46.09681" lon="6.64818">
        <ele>649.3</ele>
        <time>2021-10-02T16:53:27Z</time>
      </trkpt>
      <trkpt lat="46.09681" lon="6.64835">
        <ele>648.4</ele>
        <time>2021-10-02T16:53:32Z</time>
      </trkpt>
      <trkpt lat="46.09677" lon="6.64858">
        <ele>648.4</ele>
        <time>2021-10-02T16:53:37Z</time>
      </trkpt>
      <trkpt lat="46.09677" lon="6.64874">
        <ele>648.4</ele>
        <time>2021-10-02T16:53:42Z</time>
      </trkpt>
      <trkpt lat="46.09675" lon="6.64899">
        <ele>648.5</ele>
        <time>2021-10-02T16:53:47Z</time>
      </trkpt>
      <trkpt lat="46.09671" lon="6.64916">
        <ele>648.2</ele>
        <time>2021-10-02T16:53:52Z</time>
      </trkpt>
      <trkpt lat="46.09667" lon="6.6494">
        <ele>648.6</ele>
        <time>2021-10-02T16:53:57Z</time>
      </trkpt>
      <trkpt lat="46.09662" lon="6.64957">
        <ele>649</ele>
        <time>2021-10-02T16:54:02Z</time>
      </trkpt>
      <trkpt lat="46.09661" lon="6.6498">
        <ele>649.5</ele>
        <time>2021-10-02T16:54:07Z</time>
      </trkpt>
      <trkpt lat="46.0966" lon="6.64997">
        <ele>649.9</ele>
        <time>2021-10-02T16:54:12Z</time>
      </trkpt>
      <trkpt lat="46.09657" lon="6.6502">
        <ele>650.6</ele>
        <time>2021-10-02T16:54:17Z</time>
      </trkpt>
      <trkpt lat="46.09655" lon="6.65033">
        <ele>651</ele>
        <time>2021-10-02T16:54:22Z</time>
      </trkpt>
      <trkpt lat="46.09653" lon="6.65055">
        <ele>651.8</ele>
        <time>2021-10-02T16:54:27Z</time>
      </trkpt>
      <trkpt lat="46.09651" lon="6.65071">
        <ele>652.4</ele>
        <time>2021-10-02T16:54:32Z</time>
      </trkpt>
      <trkpt lat="46.09643" lon="6.65093">
        <ele>653.5</ele>
        <time>2021-10-02T16:54:37Z</time>
      </trkpt>
      <trkpt lat="46.09633" lon="6.65105">
        <ele>654.6</ele>
        <time>2021-10-02T16:54:42Z</time>
      </trkpt>
      <trkpt lat="46.09628" lon="6.65112">
        <ele>655.2</ele>
        <time>2021-10-02T16:54:47Z</time>
      </trkpt>
      <trkpt lat="46.09622" lon="6.65128">
        <ele>656.3</ele>
        <time>2021-10-02T16:54:52Z</time>
      </trkpt>
      <trkpt lat="46.09628" lon="6.65145">
        <ele>656.7</ele>
        <time>2021-10-02T16:54:57Z</time>
      </trkpt>
      <trkpt lat="46.09628" lon="6.65157">
        <ele>657.3</ele>
        <time>2021-10-02T16:55:02Z</time>
      </trkpt>
      <trkpt lat="46.09628" lon="6.65173">
        <ele>657.5</ele>
        <time>2021-10-02T16:55:07Z</time>
      </trkpt>
      <trkpt lat="46.09628" lon="6.65187">
        <ele>657.3</ele>
        <time>2021-10-02T16:55:12Z</time>
      </trkpt>
      <trkpt lat="46.09618" lon="6.65206">
        <ele>657.7</ele>
        <time>2021-10-02T16:55:17Z</time>
      </trkpt>
      <trkpt lat="46.09613" lon="6.65213">
        <ele>657.9</ele>
        <time>2021-10-02T16:55:22Z</time>
      </trkpt>
      <trkpt lat="46.09608" lon="6.6523">
        <ele>657.8</ele>
        <time>2021-10-02T16:55:27Z</time>
      </trkpt>
      <trkpt lat="46.09607" lon="6.65245">
        <ele>657.5</ele>
        <time>2021-10-02T16:55:32Z</time>
      </trkpt>
      <trkpt lat="46.09603" lon="6.65266">
        <ele>657.1</ele>
        <time>2021-10-02T16:55:37Z</time>
      </trkpt>
      <trkpt lat="46.09602" lon="6.65279">
        <ele>656.8</ele>
        <time>2021-10-02T16:55:42Z</time>
      </trkpt>
      <trkpt lat="46.09599" lon="6.65299">
        <ele>656.3</ele>
        <time>2021-10-02T16:55:47Z</time>
      </trkpt>
      <trkpt lat="46.096" lon="6.65314">
        <ele>655.8</ele>
        <time>2021-10-02T16:55:52Z</time>
      </trkpt>
      <trkpt lat="46.09597" lon="6.65336">
        <ele>655.2</ele>
        <time>2021-10-02T16:55:57Z</time>
      </trkpt>
      <trkpt lat="46.09593" lon="6.65348">
        <ele>654.9</ele>
        <time>2021-10-02T16:56:02Z</time>
      </trkpt>
      <trkpt lat="46.09588" lon="6.65368">
        <ele>654.2</ele>
        <time>2021-10-02T16:56:07Z</time>
      </trkpt>
      <trkpt lat="46.09587" lon="6.65382">
        <ele>653.6</ele>
        <time>2021-10-02T16:56:12Z</time>
      </trkpt>
      <trkpt lat="46.09585" lon="6.65397">
        <ele>653</ele>
        <time>2021-10-02T16:56:17Z</time>
      </trkpt>
      <trkpt lat="46.09576" lon="6.65416">
        <ele>652.4</ele>
        <time>2021-10-02T16:56:22Z</time>
      </trkpt>
      <trkpt lat="46.0957" lon="6.65429">
        <ele>652.3</ele>
        <time>2021-10-02T16:56:27Z</time>
      </trkpt>
      <trkpt lat="46.09566" lon="6.6545">
        <ele>652</ele>
        <time>2021-10-02T16:56:32Z</time>
      </trkpt>
      <trkpt lat="46.09562" lon="6.6547">
        <ele>651.7</ele>
        <time>2021-10-02T16:56:37Z</time>
      </trkpt>
      <trkpt lat="46.09558" lon="6.65482">
        <ele>651.9</ele>
        <time>2021-10-02T16:56:42Z</time>
      </trkpt>
      <trkpt lat="46.09555" lon="6.65503">
        <ele>651.8</ele>
        <time>2021-10-02T16:56:47Z</time>
      </trkpt>
      <trkpt lat="46.09551" lon="6.65516">
        <ele>652.5</ele>
        <time>2021-10-02T16:56:52Z</time>
      </trkpt>
      <trkpt lat="46.09551" lon="6.65537">
        <ele>653.1</ele>
        <time>2021-10-02T16:56:57Z</time>
      </trkpt>
      <trkpt lat="46.09547" lon="6.65551">
        <ele>654</ele>
        <time>2021-10-02T16:57:02Z</time>
      </trkpt>
      <trkpt lat="46.09541" lon="6.65572">
        <ele>655.2</ele>
        <time>2021-10-02T16:57:07Z</time>
      </trkpt>
      <trkpt lat="46.0954" lon="6.65589">
        <ele>655.8</ele>
        <time>2021-10-02T16:57:12Z</time>
      </trkpt>
      <trkpt lat="46.0954" lon="6.6561">
        <ele>655.8</ele>
        <time>2021-10-02T16:57:17Z</time>
      </trkpt>
      <trkpt lat="46.09542" lon="6.65627">
        <ele>655.8</ele>
        <time>2021-10-02T16:57:22Z</time>
      </trkpt>
      <trkpt lat="46.09542" lon="6.65649">
        <ele>655.9</ele>
        <time>2021-10-02T16:57:27Z</time>
      </trkpt>
      <trkpt lat="46.09543" lon="6.65663">
        <ele>655.8</ele>
        <time>2021-10-02T16:57:32Z</time>
      </trkpt>
      <trkpt lat="46.09538" lon="6.65683">
        <ele>656.3</ele>
        <time>2021-10-02T16:57:37Z</time>
      </trkpt>
      <trkpt lat="46.09538" lon="6.65696">
        <ele>656.2</ele>
        <time>2021-10-02T16:57:42Z</time>
      </trkpt>
      <trkpt lat="46.09544" lon="6.65717">
        <ele>655.5</ele>
        <time>2021-10-02T16:57:47Z</time>
      </trkpt>
      <trkpt lat="46.09552" lon="6.65731">
        <ele>654.4</ele>
        <time>2021-10-02T16:57:52Z</time>
      </trkpt>
      <trkpt lat="46.09562" lon="6.65745">
        <ele>653.4</ele>
        <time>2021-10-02T16:57:57Z</time>
      </trkpt>
      <trkpt lat="46.0957" lon="6.65767">
        <ele>652.8</ele>
        <time>2021-10-02T16:58:02Z</time>
      </trkpt>
      <trkpt lat="46.0957" lon="6.65786">
        <ele>653.3</ele>
        <time>2021-10-02T16:58:07Z</time>
      </trkpt>
      <trkpt lat="46.09572" lon="6.65799">
        <ele>653.3</ele>
        <time>2021-10-02T16:58:12Z</time>
      </trkpt>
      <trkpt lat="46.09573" lon="6.65819">
        <ele>653.7</ele>
        <time>2021-10-02T16:58:17Z</time>
      </trkpt>
      <trkpt lat="46.09578" lon="6.65832">
        <ele>653.5</ele>
        <time>2021-10-02T16:58:22Z</time>
      </trkpt>
      <trkpt lat="46.09583" lon="6.65853">
        <ele>653.2</ele>
        <time>2021-10-02T16:58:27Z</time>
      </trkpt>
      <trkpt lat="46.09584" lon="6.65867">
        <ele>653.4</ele>
        <time>2021-10-02T16:58:32Z</time>
      </trkpt>
      <trkpt lat="46.09581" lon="6.65888">
        <ele>653.9</ele>
        <time>2021-10-02T16:58:37Z</time>
      </trkpt>
      <trkpt lat="46.09574" lon="6.65897">
        <ele>654.6</ele>
        <time>2021-10-02T16:58:42Z</time>
      </trkpt>
      <trkpt lat="46.09563" lon="6.65913">
        <ele>655.7</ele>
        <time>2021-10-02T16:58:47Z</time>
      </trkpt>
      <trkpt lat="46.09558" lon="6.65922">
        <ele>656</ele>
        <time>2021-10-02T16:58:52Z</time>
      </trkpt>
      <trkpt lat="46.09548" lon="6.6593">
        <ele>656.7</ele>
        <time>2021-10-02T16:58:57Z</time>
      </trkpt>
      <trkpt lat="46.09543" lon="6.65941">
        <ele>656.9</ele>
        <time>2021-10-02T16:59:02Z</time>
      </trkpt>
      <trkpt lat="46.09534" lon="6.65949">
        <ele>657.3</ele>
        <time>2021-10-02T16:59:07Z</time>
      </trkpt>
      <trkpt lat="46.09527" lon="6.65953">
        <ele>657.7</ele>
        <time>2021-10-02T16:59:12Z</time>
      </trkpt>
      <trkpt lat="46.09522" lon="6.65955">
        <ele>658</ele>
        <time>2021-10-02T16:59:17Z</time>
      </trkpt>
      <trkpt lat="46.09514" lon="6.65962">
        <ele>658.4</ele>
        <time>2021-10-02T16:59:22Z</time>
      </trkpt>
      <trkpt lat="46.09506" lon="6.65968">
        <ele>658.8</ele>
        <time>2021-10-02T16:59:27Z</time>
      </trkpt>
      <trkpt lat="46.09498" lon="6.65982">
        <ele>658.8</ele>
        <time>2021-10-02T16:59:32Z</time>
      </trkpt>
      <trkpt lat="46.0949" lon="6.65995">
        <ele>659.2</ele>
        <time>2021-10-02T16:59:37Z</time>
      </trkpt>
      <trkpt lat="46.09478" lon="6.66014">
        <ele>659.6</ele>
        <time>2021-10-02T16:59:42Z</time>
      </trkpt>
      <trkpt lat="46.09469" lon="6.66033">
        <ele>659.7</ele>
        <time>2021-10-02T16:59:47Z</time>
      </trkpt>
      <trkpt lat="46.09466" lon="6.6604">
        <ele>659.7</ele>
        <time>2021-10-02T16:59:52Z</time>
      </trkpt>
      <trkpt lat="46.09457" lon="6.66046">
        <ele>660.5</ele>
        <time>2021-10-02T16:59:57Z</time>
      </trkpt>
      <trkpt lat="46.09452" lon="6.66052">
        <ele>660.8</ele>
        <time>2021-10-02T17:00:02Z</time>
      </trkpt>
      <trkpt lat="46.09437" lon="6.66058">
        <ele>662.3</ele>
        <time>2021-10-02T17:00:07Z</time>
      </trkpt>
      <trkpt lat="46.09429" lon="6.6606">
        <ele>663.3</ele>
        <time>2021-10-02T17:00:12Z</time>
      </trkpt>
      <trkpt lat="46.09414" lon="6.66061">
        <ele>664.8</ele>
        <time>2021-10-02T17:00:17Z</time>
      </trkpt>
      <trkpt lat="46.09404" lon="6.66061">
        <ele>664.6</ele>
        <time>2021-10-02T17:00:22Z</time>
      </trkpt>
      <trkpt lat="46.0939" lon="6.66062">
        <ele>664.4</ele>
        <time>2021-10-02T17:00:27Z</time>
      </trkpt>
      <trkpt lat="46.09378" lon="6.66068">
        <ele>664.2</ele>
        <time>2021-10-02T17:00:32Z</time>
      </trkpt>
      <trkpt lat="46.09362" lon="6.66079">
        <ele>664</ele>
        <time>2021-10-02T17:00:37Z</time>
      </trkpt>
      <trkpt lat="46.09355" lon="6.66089">
        <ele>663.8</ele>
        <time>2021-10-02T17:00:42Z</time>
      </trkpt>
      <trkpt lat="46.09344" lon="6.66109">
        <ele>663.5</ele>
        <time>2021-10-02T17:00:47Z</time>
      </trkpt>
      <trkpt lat="46.09341" lon="6.66122">
        <ele>663.3</ele>
        <time>2021-10-02T17:00:52Z</time>
      </trkpt>
      <trkpt lat="46.09336" lon="6.66135">
        <ele>663.3</ele>
        <time>2021-10-02T17:00:57Z</time>
      </trkpt>
      <trkpt lat="46.09327" lon="6.66154">
        <ele>663</ele>
        <time>2021-10-02T17:01:02Z</time>
      </trkpt>
      <trkpt lat="46.09317" lon="6.66172">
        <ele>662.3</ele>
        <time>2021-10-02T17:01:07Z</time>
      </trkpt>
      <trkpt lat="46.09313" lon="6.66184">
        <ele>661.5</ele>
        <time>2021-10-02T17:01:12Z</time>
      </trkpt>
      <trkpt lat="46.09298" lon="6.66205">
        <ele>660.2</ele>
        <time>2021-10-02T17:01:17Z</time>
      </trkpt>
      <trkpt lat="46.09294" lon="6.66218">
        <ele>659.5</ele>
        <time>2021-10-02T17:01:22Z</time>
      </trkpt>
      <trkpt lat="46.09285" lon="6.66234">
        <ele>658.9</ele>
        <time>2021-10-02T17:01:27Z</time>
      </trkpt>
      <trkpt lat="46.0928" lon="6.66247">
        <ele>658.4</ele>
        <time>2021-10-02T17:01:32Z</time>
      </trkpt>
      <trkpt lat="46.0927" lon="6.66256">
        <ele>658.2</ele>
        <time>2021-10-02T17:01:37Z</time>
      </trkpt>
      <trkpt lat="46.0926" lon="6.66265">
        <ele>657.8</ele>
        <time>2021-10-02T17:01:42Z</time>
      </trkpt>
      <trkpt lat="46.09249" lon="6.6628">
        <ele>657.2</ele>
        <time>2021-10-02T17:01:47Z</time>
      </trkpt>
      <trkpt lat="46.09239" lon="6.66292">
        <ele>656.6</ele>
        <time>2021-10-02T17:01:52Z</time>
      </trkpt>
      <trkpt lat="46.09225" lon="6.66312">
        <ele>655.7</ele>
        <time>2021-10-02T17:01:57Z</time>
      </trkpt>
      <trkpt lat="46.09216" lon="6.66325">
        <ele>655.2</ele>
        <time>2021-10-02T17:02:02Z</time>
      </trkpt>
      <trkpt lat="46.09201" lon="6.6634">
        <ele>655.2</ele>
        <time>2021-10-02T17:02:07Z</time>
      </trkpt>
      <trkpt lat="46.09192" lon="6.66349">
        <ele>655.5</ele>
        <time>2021-10-02T17:02:12Z</time>
      </trkpt>
      <trkpt lat="46.09178" lon="6.66361">
        <ele>656</ele>
        <time>2021-10-02T17:02:17Z</time>
      </trkpt>
      <trkpt lat="46.09168" lon="6.66369">
        <ele>656.4</ele>
        <time>2021-10-02T17:02:22Z</time>
      </trkpt>
      <trkpt lat="46.09159" lon="6.66378">
        <ele>656.7</ele>
        <time>2021-10-02T17:02:27Z</time>
      </trkpt>
      <trkpt lat="46.09147" lon="6.6639">
        <ele>657.2</ele>
        <time>2021-10-02T17:02:32Z</time>
      </trkpt>
      <trkpt lat="46.09133" lon="6.66404">
        <ele>657.7</ele>
        <time>2021-10-02T17:02:37Z</time>
      </trkpt>
      <trkpt lat="46.09124" lon="6.66413">
        <ele>658</ele>
        <time>2021-10-02T17:02:42Z</time>
      </trkpt>
      <trkpt lat="46.09111" lon="6.66421">
        <ele>658.3</ele>
        <time>2021-10-02T17:02:47Z</time>
      </trkpt>
      <trkpt lat="46.09099" lon="6.66428">
        <ele>658.5</ele>
        <time>2021-10-02T17:02:52Z</time>
      </trkpt>
      <trkpt lat="46.09085" lon="6.66429">
        <ele>658.7</ele>
        <time>2021-10-02T17:02:57Z</time>
      </trkpt>
      <trkpt lat="46.09076" lon="6.66424">
        <ele>658.9</ele>
        <time>2021-10-02T17:03:02Z</time>
      </trkpt>
      <trkpt lat="46.09064" lon="6.66418">
        <ele>659.2</ele>
        <time>2021-10-02T17:03:07Z</time>
      </trkpt>
      <trkpt lat="46.09055" lon="6.66419">
        <ele>659.3</ele>
        <time>2021-10-02T17:03:12Z</time>
      </trkpt>
      <trkpt lat="46.09041" lon="6.66435">
        <ele>659.5</ele>
        <time>2021-10-02T17:03:17Z</time>
      </trkpt>
      <trkpt lat="46.09037" lon="6.66446">
        <ele>659.6</ele>
        <time>2021-10-02T17:03:24Z</time>
      </trkpt>
      <trkpt lat="46.09037" lon="6.66454">
        <ele>659.7</ele>
        <time>2021-10-02T17:03:29Z</time>
      </trkpt>
      <trkpt lat="46.09033" lon="6.66462">
        <ele>659.8</ele>
        <time>2021-10-02T17:03:39Z</time>
      </trkpt>
      <trkpt lat="46.09025" lon="6.66469">
        <ele>660.2</ele>
        <time>2021-10-02T17:03:44Z</time>
      </trkpt>
      <trkpt lat="46.09019" lon="6.66483">
        <ele>660.7</ele>
        <time>2021-10-02T17:03:49Z</time>
      </trkpt>
      <trkpt lat="46.09012" lon="6.66495">
        <ele>661.2</ele>
        <time>2021-10-02T17:03:54Z</time>
      </trkpt>
      <trkpt lat="46.09005" lon="6.66505">
        <ele>661.5</ele>
        <time>2021-10-02T17:03:59Z</time>
      </trkpt>
      <trkpt lat="46.08994" lon="6.66516">
        <ele>661.3</ele>
        <time>2021-10-02T17:04:04Z</time>
      </trkpt>
      <trkpt lat="46.08982" lon="6.66526">
        <ele>661.1</ele>
        <time>2021-10-02T17:04:09Z</time>
      </trkpt>
      <trkpt lat="46.08973" lon="6.66532">
        <ele>661.1</ele>
        <time>2021-10-02T17:04:14Z</time>
      </trkpt>
      <trkpt lat="46.08959" lon="6.66543">
        <ele>661.2</ele>
        <time>2021-10-02T17:04:19Z</time>
      </trkpt>
      <trkpt lat="46.0895" lon="6.66549">
        <ele>661.4</ele>
        <time>2021-10-02T17:04:24Z</time>
      </trkpt>
      <trkpt lat="46.08938" lon="6.66563">
        <ele>661.8</ele>
        <time>2021-10-02T17:04:29Z</time>
      </trkpt>
      <trkpt lat="46.0893" lon="6.66569">
        <ele>662.2</ele>
        <time>2021-10-02T17:04:34Z</time>
      </trkpt>
      <trkpt lat="46.0892" lon="6.66582">
        <ele>662.8</ele>
        <time>2021-10-02T17:04:39Z</time>
      </trkpt>
      <trkpt lat="46.08911" lon="6.66588">
        <ele>663.1</ele>
        <time>2021-10-02T17:04:44Z</time>
      </trkpt>
      <trkpt lat="46.08898" lon="6.66592">
        <ele>663.6</ele>
        <time>2021-10-02T17:04:49Z</time>
      </trkpt>
      <trkpt lat="46.0889" lon="6.66598">
        <ele>663.8</ele>
        <time>2021-10-02T17:04:54Z</time>
      </trkpt>
      <trkpt lat="46.08879" lon="6.66608">
        <ele>664.1</ele>
        <time>2021-10-02T17:04:59Z</time>
      </trkpt>
      <trkpt lat="46.08874" lon="6.66614">
        <ele>664.1</ele>
        <time>2021-10-02T17:05:04Z</time>
      </trkpt>
      <trkpt lat="46.08866" lon="6.66623">
        <ele>664.3</ele>
        <time>2021-10-02T17:05:09Z</time>
      </trkpt>
      <trkpt lat="46.08857" lon="6.66631">
        <ele>664.6</ele>
        <time>2021-10-02T17:05:14Z</time>
      </trkpt>
      <trkpt lat="46.08842" lon="6.66644">
        <ele>665.1</ele>
        <time>2021-10-02T17:05:19Z</time>
      </trkpt>
      <trkpt lat="46.08833" lon="6.66654">
        <ele>665.5</ele>
        <time>2021-10-02T17:05:24Z</time>
      </trkpt>
      <trkpt lat="46.08825" lon="6.66666">
        <ele>665.6</ele>
        <time>2021-10-02T17:05:29Z</time>
      </trkpt>
      <trkpt lat="46.08829" lon="6.66689">
        <ele>664.3</ele>
        <time>2021-10-02T17:05:34Z</time>
      </trkpt>
      <trkpt lat="46.08837" lon="6.66708">
        <ele>662.7</ele>
        <time>2021-10-02T17:05:39Z</time>
      </trkpt>
      <trkpt lat="46.08844" lon="6.66719">
        <ele>661.8</ele>
        <time>2021-10-02T17:05:44Z</time>
      </trkpt>
      <trkpt lat="46.08842" lon="6.66738">
        <ele>661.1</ele>
        <time>2021-10-02T17:05:49Z</time>
      </trkpt>
      <trkpt lat="46.08845" lon="6.66746">
        <ele>660.5</ele>
        <time>2021-10-02T17:05:54Z</time>
      </trkpt>
      <trkpt lat="46.08845" lon="6.66768">
        <ele>659.6</ele>
        <time>2021-10-02T17:05:59Z</time>
      </trkpt>
      <trkpt lat="46.08841" lon="6.66782">
        <ele>659.2</ele>
        <time>2021-10-02T17:06:04Z</time>
      </trkpt>
      <trkpt lat="46.08836" lon="6.66802">
        <ele>658.5</ele>
        <time>2021-10-02T17:06:09Z</time>
      </trkpt>
      <trkpt lat="46.08831" lon="6.66814">
        <ele>658.2</ele>
        <time>2021-10-02T17:06:14Z</time>
      </trkpt>
      <trkpt lat="46.08827" lon="6.66835">
        <ele>658.1</ele>
        <time>2021-10-02T17:06:19Z</time>
      </trkpt>
      <trkpt lat="46.08827" lon="6.66846">
        <ele>658.5</ele>
        <time>2021-10-02T17:06:24Z</time>
      </trkpt>
      <trkpt lat="46.08824" lon="6.66861">
        <ele>659.7</ele>
        <time>2021-10-02T17:06:29Z</time>
      </trkpt>
      <trkpt lat="46.08825" lon="6.66875">
        <ele>660.1</ele>
        <time>2021-10-02T17:06:34Z</time>
      </trkpt>
      <trkpt lat="46.08823" lon="6.66894">
        <ele>661.2</ele>
        <time>2021-10-02T17:06:39Z</time>
      </trkpt>
      <trkpt lat="46.08822" lon="6.66906">
        <ele>662</ele>
        <time>2021-10-02T17:06:44Z</time>
      </trkpt>
      <trkpt lat="46.08822" lon="6.66923">
        <ele>662.6</ele>
        <time>2021-10-02T17:06:49Z</time>
      </trkpt>
      <trkpt lat="46.08818" lon="6.66929">
        <ele>663.2</ele>
        <time>2021-10-02T17:06:54Z</time>
      </trkpt>
      <trkpt lat="46.08817" lon="6.6694">
        <ele>663.5</ele>
        <time>2021-10-02T17:06:59Z</time>
      </trkpt>
      <trkpt lat="46.08814" lon="6.66958">
        <ele>664.3</ele>
        <time>2021-10-02T17:07:04Z</time>
      </trkpt>
      <trkpt lat="46.08813" lon="6.66972">
        <ele>664.6</ele>
        <time>2021-10-02T17:07:09Z</time>
      </trkpt>
      <trkpt lat="46.08811" lon="6.66983">
        <ele>665</ele>
        <time>2021-10-02T17:07:14Z</time>
      </trkpt>
      <trkpt lat="46.0881" lon="6.66998">
        <ele>665.4</ele>
        <time>2021-10-02T17:07:19Z</time>
      </trkpt>
      <trkpt lat="46.08813" lon="6.67009">
        <ele>665</ele>
        <time>2021-10-02T17:07:24Z</time>
      </trkpt>
      <trkpt lat="46.08808" lon="6.67028">
        <ele>664.8</ele>
        <time>2021-10-02T17:07:29Z</time>
      </trkpt>
      <trkpt lat="46.08809" lon="6.67041">
        <ele>664.4</ele>
        <time>2021-10-02T17:07:34Z</time>
      </trkpt>
      <trkpt lat="46.08811" lon="6.67062">
        <ele>663.7</ele>
        <time>2021-10-02T17:07:39Z</time>
      </trkpt>
      <trkpt lat="46.08806" lon="6.67073">
        <ele>663.9</ele>
        <time>2021-10-02T17:07:44Z</time>
      </trkpt>
      <trkpt lat="46.08803" lon="6.67091">
        <ele>664</ele>
        <time>2021-10-02T17:07:49Z</time>
      </trkpt>
      <trkpt lat="46.08803" lon="6.67103">
        <ele>664</ele>
        <time>2021-10-02T17:07:54Z</time>
      </trkpt>
      <trkpt lat="46.08804" lon="6.67119">
        <ele>663.9</ele>
        <time>2021-10-02T17:07:59Z</time>
      </trkpt>
      <trkpt lat="46.08799" lon="6.6713">
        <ele>664.6</ele>
        <time>2021-10-02T17:08:04Z</time>
      </trkpt>
      <trkpt lat="46.08796" lon="6.67147">
        <ele>665</ele>
        <time>2021-10-02T17:08:09Z</time>
      </trkpt>
      <trkpt lat="46.08796" lon="6.6716">
        <ele>665</ele>
        <time>2021-10-02T17:08:14Z</time>
      </trkpt>
      <trkpt lat="46.08794" lon="6.67179">
        <ele>665.1</ele>
        <time>2021-10-02T17:08:19Z</time>
      </trkpt>
      <trkpt lat="46.08794" lon="6.6719">
        <ele>665.1</ele>
        <time>2021-10-02T17:08:24Z</time>
      </trkpt>
      <trkpt lat="46.08796" lon="6.67207">
        <ele>664.7</ele>
        <time>2021-10-02T17:08:29Z</time>
      </trkpt>
      <trkpt lat="46.08798" lon="6.67217">
        <ele>664.5</ele>
        <time>2021-10-02T17:08:34Z</time>
      </trkpt>
      <trkpt lat="46.08799" lon="6.67237">
        <ele>664.3</ele>
        <time>2021-10-02T17:08:39Z</time>
      </trkpt>
      <trkpt lat="46.08795" lon="6.6725">
        <ele>664.6</ele>
        <time>2021-10-02T17:08:44Z</time>
      </trkpt>
      <trkpt lat="46.0879" lon="6.67271">
        <ele>665.5</ele>
        <time>2021-10-02T17:08:49Z</time>
      </trkpt>
      <trkpt lat="46.08792" lon="6.67287">
        <ele>665.6</ele>
        <time>2021-10-02T17:08:54Z</time>
      </trkpt>
      <trkpt lat="46.08791" lon="6.67307">
        <ele>666.1</ele>
        <time>2021-10-02T17:08:59Z</time>
      </trkpt>
      <trkpt lat="46.08791" lon="6.67321">
        <ele>666.3</ele>
        <time>2021-10-02T17:09:04Z</time>
      </trkpt>
      <trkpt lat="46.08787" lon="6.67352">
        <ele>667.2</ele>
        <time>2021-10-02T17:09:09Z</time>
      </trkpt>
      <trkpt lat="46.08784" lon="6.67371">
        <ele>667.7</ele>
        <time>2021-10-02T17:09:14Z</time>
      </trkpt>
      <trkpt lat="46.08774" lon="6.67394">
        <ele>668.8</ele>
        <time>2021-10-02T17:09:19Z</time>
      </trkpt>
      <trkpt lat="46.08771" lon="6.67409">
        <ele>669</ele>
        <time>2021-10-02T17:09:24Z</time>
      </trkpt>
      <trkpt lat="46.08769" lon="6.67428">
        <ele>668.9</ele>
        <time>2021-10-02T17:09:29Z</time>
      </trkpt>
      <trkpt lat="46.08769" lon="6.67443">
        <ele>668.5</ele>
        <time>2021-10-02T17:09:34Z</time>
      </trkpt>
      <trkpt lat="46.08768" lon="6.67466">
        <ele>668</ele>
        <time>2021-10-02T17:09:39Z</time>
      </trkpt>
      <trkpt lat="46.08765" lon="6.67479">
        <ele>667.9</ele>
        <time>2021-10-02T17:09:44Z</time>
      </trkpt>
      <trkpt lat="46.08768" lon="6.67502">
        <ele>667.2</ele>
        <time>2021-10-02T17:09:49Z</time>
      </trkpt>
      <trkpt lat="46.08765" lon="6.67516">
        <ele>667.3</ele>
        <time>2021-10-02T17:09:54Z</time>
      </trkpt>
      <trkpt lat="46.08765" lon="6.67536">
        <ele>667.3</ele>
        <time>2021-10-02T17:09:59Z</time>
      </trkpt>
      <trkpt lat="46.08764" lon="6.6755">
        <ele>667.3</ele>
        <time>2021-10-02T17:10:04Z</time>
      </trkpt>
      <trkpt lat="46.08766" lon="6.67572">
        <ele>667.2</ele>
        <time>2021-10-02T17:10:09Z</time>
      </trkpt>
      <trkpt lat="46.08766" lon="6.67585">
        <ele>667.2</ele>
        <time>2021-10-02T17:10:14Z</time>
      </trkpt>
      <trkpt lat="46.08767" lon="6.67606">
        <ele>667.3</ele>
        <time>2021-10-02T17:10:19Z</time>
      </trkpt>
      <trkpt lat="46.08767" lon="6.67619">
        <ele>667.4</ele>
        <time>2021-10-02T17:10:24Z</time>
      </trkpt>
      <trkpt lat="46.08767" lon="6.6764">
        <ele>667.5</ele>
        <time>2021-10-02T17:10:29Z</time>
      </trkpt>
      <trkpt lat="46.08765" lon="6.67653">
        <ele>667.6</ele>
        <time>2021-10-02T17:10:34Z</time>
      </trkpt>
      <trkpt lat="46.08763" lon="6.67673">
        <ele>667.8</ele>
        <time>2021-10-02T17:10:39Z</time>
      </trkpt>
      <trkpt lat="46.08761" lon="6.67688">
        <ele>668</ele>
        <time>2021-10-02T17:10:44Z</time>
      </trkpt>
      <trkpt lat="46.08762" lon="6.67709">
        <ele>668.2</ele>
        <time>2021-10-02T17:10:49Z</time>
      </trkpt>
      <trkpt lat="46.08762" lon="6.67724">
        <ele>668.4</ele>
        <time>2021-10-02T17:10:54Z</time>
      </trkpt>
      <trkpt lat="46.08761" lon="6.67744">
        <ele>668.7</ele>
        <time>2021-10-02T17:10:59Z</time>
      </trkpt>
      <trkpt lat="46.08759" lon="6.67758">
        <ele>668.8</ele>
        <time>2021-10-02T17:11:04Z</time>
      </trkpt>
      <trkpt lat="46.08758" lon="6.67777">
        <ele>668.8</ele>
        <time>2021-10-02T17:11:09Z</time>
      </trkpt>
      <trkpt lat="46.08756" lon="6.67791">
        <ele>668.9</ele>
        <time>2021-10-02T17:11:14Z</time>
      </trkpt>
      <trkpt lat="46.08758" lon="6.67811">
        <ele>668.8</ele>
        <time>2021-10-02T17:11:19Z</time>
      </trkpt>
      <trkpt lat="46.0876" lon="6.67827">
        <ele>668.8</ele>
        <time>2021-10-02T17:11:24Z</time>
      </trkpt>
      <trkpt lat="46.08757" lon="6.67841">
        <ele>669.1</ele>
        <time>2021-10-02T17:11:29Z</time>
      </trkpt>
      <trkpt lat="46.08752" lon="6.6786">
        <ele>669.6</ele>
        <time>2021-10-02T17:11:34Z</time>
      </trkpt>
      <trkpt lat="46.08754" lon="6.67871">
        <ele>669.9</ele>
        <time>2021-10-02T17:11:39Z</time>
      </trkpt>
      <trkpt lat="46.08753" lon="6.67888">
        <ele>670.3</ele>
        <time>2021-10-02T17:11:44Z</time>
      </trkpt>
      <trkpt lat="46.08749" lon="6.67907">
        <ele>670.8</ele>
        <time>2021-10-02T17:11:49Z</time>
      </trkpt>
      <trkpt lat="46.08745" lon="6.67916">
        <ele>670.9</ele>
        <time>2021-10-02T17:11:54Z</time>
      </trkpt>
      <trkpt lat="46.08739" lon="6.67933">
        <ele>671.3</ele>
        <time>2021-10-02T17:11:59Z</time>
      </trkpt>
      <trkpt lat="46.0873" lon="6.67945">
        <ele>671.7</ele>
        <time>2021-10-02T17:12:04Z</time>
      </trkpt>
      <trkpt lat="46.08723" lon="6.67965">
        <ele>672.4</ele>
        <time>2021-10-02T17:12:09Z</time>
      </trkpt>
      <trkpt lat="46.0872" lon="6.67977">
        <ele>672.9</ele>
        <time>2021-10-02T17:12:14Z</time>
      </trkpt>
      <trkpt lat="46.08717" lon="6.67999">
        <ele>673.7</ele>
        <time>2021-10-02T17:12:19Z</time>
      </trkpt>
      <trkpt lat="46.08713" lon="6.68012">
        <ele>673.7</ele>
        <time>2021-10-02T17:12:24Z</time>
      </trkpt>
      <trkpt lat="46.08711" lon="6.68032">
        <ele>673.5</ele>
        <time>2021-10-02T17:12:29Z</time>
      </trkpt>
      <trkpt lat="46.0871" lon="6.68045">
        <ele>673.4</ele>
        <time>2021-10-02T17:12:34Z</time>
      </trkpt>
      <trkpt lat="46.08705" lon="6.68063">
        <ele>673.5</ele>
        <time>2021-10-02T17:12:39Z</time>
      </trkpt>
      <trkpt lat="46.08701" lon="6.68074">
        <ele>673.6</ele>
        <time>2021-10-02T17:12:44Z</time>
      </trkpt>
      <trkpt lat="46.08699" lon="6.68093">
        <ele>673.5</ele>
        <time>2021-10-02T17:12:49Z</time>
      </trkpt>
      <trkpt lat="46.08693" lon="6.68106">
        <ele>673.6</ele>
        <time>2021-10-02T17:12:54Z</time>
      </trkpt>
      <trkpt lat="46.08691" lon="6.68119">
        <ele>673.5</ele>
        <time>2021-10-02T17:12:59Z</time>
      </trkpt>
      <trkpt lat="46.08688" lon="6.6814">
        <ele>673.1</ele>
        <time>2021-10-02T17:13:04Z</time>
      </trkpt>
      <trkpt lat="46.08686" lon="6.68154">
        <ele>672.9</ele>
        <time>2021-10-02T17:13:09Z</time>
      </trkpt>
      <trkpt lat="46.08684" lon="6.68174">
        <ele>672.6</ele>
        <time>2021-10-02T17:13:14Z</time>
      </trkpt>
      <trkpt lat="46.08679" lon="6.68194">
        <ele>672.6</ele>
        <time>2021-10-02T17:13:19Z</time>
      </trkpt>
      <trkpt lat="46.0868" lon="6.68207">
        <ele>672.6</ele>
        <time>2021-10-02T17:13:24Z</time>
      </trkpt>
      <trkpt lat="46.08676" lon="6.68229">
        <ele>672.5</ele>
        <time>2021-10-02T17:13:29Z</time>
      </trkpt>
      <trkpt lat="46.08676" lon="6.68244">
        <ele>672.4</ele>
        <time>2021-10-02T17:13:34Z</time>
      </trkpt>
      <trkpt lat="46.08672" lon="6.68265">
        <ele>672.2</ele>
        <time>2021-10-02T17:13:39Z</time>
      </trkpt>
      <trkpt lat="46.08672" lon="6.68279">
        <ele>672.2</ele>
        <time>2021-10-02T17:13:44Z</time>
      </trkpt>
      <trkpt lat="46.08668" lon="6.68299">
        <ele>672.1</ele>
        <time>2021-10-02T17:13:49Z</time>
      </trkpt>
      <trkpt lat="46.08667" lon="6.68313">
        <ele>672</ele>
        <time>2021-10-02T17:13:54Z</time>
      </trkpt>
      <trkpt lat="46.08664" lon="6.68334">
        <ele>672.1</ele>
        <time>2021-10-02T17:13:59Z</time>
      </trkpt>
      <trkpt lat="46.08658" lon="6.68347">
        <ele>672.4</ele>
        <time>2021-10-02T17:14:04Z</time>
      </trkpt>
      <trkpt lat="46.08654" lon="6.68368">
        <ele>672.8</ele>
        <time>2021-10-02T17:14:09Z</time>
      </trkpt>
      <trkpt lat="46.08652" lon="6.68382">
        <ele>673.1</ele>
        <time>2021-10-02T17:14:14Z</time>
      </trkpt>
      <trkpt lat="46.08647" lon="6.68403">
        <ele>673.7</ele>
        <time>2021-10-02T17:14:19Z</time>
      </trkpt>
      <trkpt lat="46.08645" lon="6.68417">
        <ele>674</ele>
        <time>2021-10-02T17:14:24Z</time>
      </trkpt>
      <trkpt lat="46.08644" lon="6.68438">
        <ele>673.8</ele>
        <time>2021-10-02T17:14:29Z</time>
      </trkpt>
      <trkpt lat="46.08643" lon="6.68452">
        <ele>673.6</ele>
        <time>2021-10-02T17:14:34Z</time>
      </trkpt>
      <trkpt lat="46.08637" lon="6.68463">
        <ele>673.7</ele>
        <time>2021-10-02T17:14:39Z</time>
      </trkpt>
      <trkpt lat="46.08636" lon="6.68486">
        <ele>673.4</ele>
        <time>2021-10-02T17:14:44Z</time>
      </trkpt>
      <trkpt lat="46.08632" lon="6.68506">
        <ele>673.3</ele>
        <time>2021-10-02T17:14:49Z</time>
      </trkpt>
      <trkpt lat="46.08633" lon="6.6852">
        <ele>673.4</ele>
        <time>2021-10-02T17:14:54Z</time>
      </trkpt>
      <trkpt lat="46.08637" lon="6.68539">
        <ele>673.3</ele>
        <time>2021-10-02T17:14:59Z</time>
      </trkpt>
      <trkpt lat="46.08636" lon="6.68551">
        <ele>673.5</ele>
        <time>2021-10-02T17:15:04Z</time>
      </trkpt>
      <trkpt lat="46.0864" lon="6.68571">
        <ele>673.1</ele>
        <time>2021-10-02T17:15:09Z</time>
      </trkpt>
      <trkpt lat="46.08642" lon="6.68587">
        <ele>673</ele>
        <time>2021-10-02T17:15:14Z</time>
      </trkpt>
      <trkpt lat="46.08644" lon="6.68609">
        <ele>673.1</ele>
        <time>2021-10-02T17:15:19Z</time>
      </trkpt>
      <trkpt lat="46.08644" lon="6.68622">
        <ele>673.4</ele>
        <time>2021-10-02T17:15:24Z</time>
      </trkpt>
      <trkpt lat="46.08644" lon="6.68641">
        <ele>673.6</ele>
        <time>2021-10-02T17:15:29Z</time>
      </trkpt>
      <trkpt lat="46.08644" lon="6.68654">
        <ele>673.8</ele>
        <time>2021-10-02T17:15:34Z</time>
      </trkpt>
      <trkpt lat="46.08655" lon="6.68674">
        <ele>672.6</ele>
        <time>2021-10-02T17:15:39Z</time>
      </trkpt>
      <trkpt lat="46.08656" lon="6.68686">
        <ele>672.5</ele>
        <time>2021-10-02T17:15:44Z</time>
      </trkpt>
      <trkpt lat="46.08657" lon="6.68708">
        <ele>672.6</ele>
        <time>2021-10-02T17:15:49Z</time>
      </trkpt>
      <trkpt lat="46.08653" lon="6.68723">
        <ele>673.3</ele>
        <time>2021-10-02T17:15:54Z</time>
      </trkpt>
      <trkpt lat="46.08647" lon="6.68735">
        <ele>674</ele>
        <time>2021-10-02T17:15:59Z</time>
      </trkpt>
      <trkpt lat="46.08643" lon="6.68753">
        <ele>674.5</ele>
        <time>2021-10-02T17:16:04Z</time>
      </trkpt>
      <trkpt lat="46.08638" lon="6.68765">
        <ele>675</ele>
        <time>2021-10-02T17:16:09Z</time>
      </trkpt>
      <trkpt lat="46.08628" lon="6.68785">
        <ele>675.8</ele>
        <time>2021-10-02T17:16:14Z</time>
      </trkpt>
      <trkpt lat="46.08619" lon="6.68806">
        <ele>676.4</ele>
        <time>2021-10-02T17:16:19Z</time>
      </trkpt>
      <trkpt lat="46.08612" lon="6.68819">
        <ele>676.8</ele>
        <time>2021-10-02T17:16:24Z</time>
      </trkpt>
      <trkpt lat="46.08603" lon="6.68838">
        <ele>677.2</ele>
        <time>2021-10-02T17:16:29Z</time>
      </trkpt>
      <trkpt lat="46.08596" lon="6.6885">
        <ele>677.3</ele>
        <time>2021-10-02T17:16:34Z</time>
      </trkpt>
      <trkpt lat="46.08589" lon="6.68868">
        <ele>677</ele>
        <time>2021-10-02T17:16:39Z</time>
      </trkpt>
      <trkpt lat="46.08586" lon="6.68881">
        <ele>676.6</ele>
        <time>2021-10-02T17:16:44Z</time>
      </trkpt>
      <trkpt lat="46.08577" lon="6.68898">
        <ele>675.8</ele>
        <time>2021-10-02T17:16:49Z</time>
      </trkpt>
      <trkpt lat="46.08572" lon="6.68911">
        <ele>675.3</ele>
        <time>2021-10-02T17:16:54Z</time>
      </trkpt>
      <trkpt lat="46.08563" lon="6.68927">
        <ele>674.9</ele>
        <time>2021-10-02T17:16:59Z</time>
      </trkpt>
      <trkpt lat="46.08556" lon="6.68938">
        <ele>674.8</ele>
        <time>2021-10-02T17:17:04Z</time>
      </trkpt>
      <trkpt lat="46.08547" lon="6.68955">
        <ele>674.7</ele>
        <time>2021-10-02T17:17:09Z</time>
      </trkpt>
      <trkpt lat="46.08541" lon="6.68966">
        <ele>674.7</ele>
        <time>2021-10-02T17:17:14Z</time>
      </trkpt>
      <trkpt lat="46.08531" lon="6.6898">
        <ele>674.7</ele>
        <time>2021-10-02T17:17:19Z</time>
      </trkpt>
      <trkpt lat="46.08521" lon="6.68987">
        <ele>674.8</ele>
        <time>2021-10-02T17:17:24Z</time>
      </trkpt>
      <trkpt lat="46.08512" lon="6.69">
        <ele>674.9</ele>
        <time>2021-10-02T17:17:29Z</time>
      </trkpt>
      <trkpt lat="46.08505" lon="6.6901">
        <ele>675.1</ele>
        <time>2021-10-02T17:17:34Z</time>
      </trkpt>
      <trkpt lat="46.08499" lon="6.69019">
        <ele>675.3</ele>
        <time>2021-10-02T17:17:39Z</time>
      </trkpt>
      <trkpt lat="46.0849" lon="6.69036">
        <ele>675.9</ele>
        <time>2021-10-02T17:17:44Z</time>
      </trkpt>
      <trkpt lat="46.08482" lon="6.69052">
        <ele>676.5</ele>
        <time>2021-10-02T17:17:49Z</time>
      </trkpt>
      <trkpt lat="46.08478" lon="6.69065">
        <ele>677</ele>
        <time>2021-10-02T17:17:54Z</time>
      </trkpt>
      <trkpt lat="46.08474" lon="6.69084">
        <ele>677.5</ele>
        <time>2021-10-02T17:17:59Z</time>
      </trkpt>
      <trkpt lat="46.08475" lon="6.69098">
        <ele>677.4</ele>
        <time>2021-10-02T17:18:04Z</time>
      </trkpt>
      <trkpt lat="46.08483" lon="6.69121">
        <ele>676.8</ele>
        <time>2021-10-02T17:18:09Z</time>
      </trkpt>
      <trkpt lat="46.08485" lon="6.69136">
        <ele>676.5</ele>
        <time>2021-10-02T17:18:14Z</time>
      </trkpt>
      <trkpt lat="46.08484" lon="6.69156">
        <ele>676.5</ele>
        <time>2021-10-02T17:18:19Z</time>
      </trkpt>
      <trkpt lat="46.08482" lon="6.69167">
        <ele>676.5</ele>
        <time>2021-10-02T17:18:24Z</time>
      </trkpt>
      <trkpt lat="46.08476" lon="6.69185">
        <ele>677.1</ele>
        <time>2021-10-02T17:18:29Z</time>
      </trkpt>
      <trkpt lat="46.08471" lon="6.69197">
        <ele>677.5</ele>
        <time>2021-10-02T17:18:34Z</time>
      </trkpt>
      <trkpt lat="46.08465" lon="6.69213">
        <ele>678.2</ele>
        <time>2021-10-02T17:18:39Z</time>
      </trkpt>
      <trkpt lat="46.08461" lon="6.69226">
        <ele>678.6</ele>
        <time>2021-10-02T17:18:44Z</time>
      </trkpt>
      <trkpt lat="46.08455" lon="6.69244">
        <ele>679.3</ele>
        <time>2021-10-02T17:18:49Z</time>
      </trkpt>
      <trkpt lat="46.08452" lon="6.69254">
        <ele>679.6</ele>
        <time>2021-10-02T17:18:54Z</time>
      </trkpt>
      <trkpt lat="46.08448" lon="6.69272">
        <ele>679.7</ele>
        <time>2021-10-02T17:18:59Z</time>
      </trkpt>
      <trkpt lat="46.08446" lon="6.69284">
        <ele>679.8</ele>
        <time>2021-10-02T17:19:04Z</time>
      </trkpt>
      <trkpt lat="46.08441" lon="6.69296">
        <ele>680.1</ele>
        <time>2021-10-02T17:19:09Z</time>
      </trkpt>
      <trkpt lat="46.08436" lon="6.69313">
        <ele>680.4</ele>
        <time>2021-10-02T17:19:14Z</time>
      </trkpt>
      <trkpt lat="46.0843" lon="6.69329">
        <ele>680.8</ele>
        <time>2021-10-02T17:19:19Z</time>
      </trkpt>
      <trkpt lat="46.08427" lon="6.69341">
        <ele>680.8</ele>
        <time>2021-10-02T17:19:24Z</time>
      </trkpt>
      <trkpt lat="46.08418" lon="6.69354">
        <ele>680.9</ele>
        <time>2021-10-02T17:19:29Z</time>
      </trkpt>
      <trkpt lat="46.08411" lon="6.69355">
        <ele>681.8</ele>
        <time>2021-10-02T17:19:36Z</time>
      </trkpt>
      <trkpt lat="46.08402" lon="6.69357">
        <ele>682.9</ele>
        <time>2021-10-02T17:19:41Z</time>
      </trkpt>
      <trkpt lat="46.08394" lon="6.69357">
        <ele>684</ele>
        <time>2021-10-02T17:19:46Z</time>
      </trkpt>
      <trkpt lat="46.08384" lon="6.69358">
        <ele>685.3</ele>
        <time>2021-10-02T17:19:51Z</time>
      </trkpt>
      <trkpt lat="46.08378" lon="6.69359">
        <ele>686</ele>
        <time>2021-10-02T17:19:56Z</time>
      </trkpt>
      <trkpt lat="46.08369" lon="6.69367">
        <ele>686.9</ele>
        <time>2021-10-02T17:20:01Z</time>
      </trkpt>
      <trkpt lat="46.08362" lon="6.69378">
        <ele>687.4</ele>
        <time>2021-10-02T17:20:06Z</time>
      </trkpt>
      <trkpt lat="46.08349" lon="6.69392">
        <ele>688.7</ele>
        <time>2021-10-02T17:20:11Z</time>
      </trkpt>
      <trkpt lat="46.08341" lon="6.69399">
        <ele>689.5</ele>
        <time>2021-10-02T17:20:16Z</time>
      </trkpt>
      <trkpt lat="46.08336" lon="6.69408">
        <ele>690</ele>
        <time>2021-10-02T17:20:21Z</time>
      </trkpt>
      <trkpt lat="46.0833" lon="6.69413">
        <ele>690.3</ele>
        <time>2021-10-02T17:20:26Z</time>
      </trkpt>
      <trkpt lat="46.08325" lon="6.69418">
        <ele>690.4</ele>
        <time>2021-10-02T17:20:31Z</time>
      </trkpt>
      <trkpt lat="46.08318" lon="6.69421">
        <ele>690.7</ele>
        <time>2021-10-02T17:20:36Z</time>
      </trkpt>
      <trkpt lat="46.08308" lon="6.69428">
        <ele>690.8</ele>
        <time>2021-10-02T17:20:43Z</time>
      </trkpt>
      <trkpt lat="46.08298" lon="6.69432">
        <ele>691.3</ele>
        <time>2021-10-02T17:20:48Z</time>
      </trkpt>
      <trkpt lat="46.08287" lon="6.69439">
        <ele>691.6</ele>
        <time>2021-10-02T17:20:53Z</time>
      </trkpt>
      <trkpt lat="46.08282" lon="6.69446">
        <ele>691.6</ele>
        <time>2021-10-02T17:20:58Z</time>
      </trkpt>
      <trkpt lat="46.08275" lon="6.69461">
        <ele>691.5</ele>
        <time>2021-10-02T17:21:03Z</time>
      </trkpt>
      <trkpt lat="46.0827" lon="6.69471">
        <ele>691.3</ele>
        <time>2021-10-02T17:21:08Z</time>
      </trkpt>
      <trkpt lat="46.08267" lon="6.69491">
        <ele>690.7</ele>
        <time>2021-10-02T17:21:13Z</time>
      </trkpt>
      <trkpt lat="46.08268" lon="6.69501">
        <ele>690.3</ele>
        <time>2021-10-02T17:21:18Z</time>
      </trkpt>
      <trkpt lat="46.08266" lon="6.69523">
        <ele>689.7</ele>
        <time>2021-10-02T17:21:23Z</time>
      </trkpt>
      <trkpt lat="46.0826" lon="6.6954">
        <ele>689.6</ele>
        <time>2021-10-02T17:21:28Z</time>
      </trkpt>
      <trkpt lat="46.0825" lon="6.6957">
        <ele>689.5</ele>
        <time>2021-10-02T17:21:33Z</time>
      </trkpt>
      <trkpt lat="46.08241" lon="6.69589">
        <ele>688.9</ele>
        <time>2021-10-02T17:21:38Z</time>
      </trkpt>
      <trkpt lat="46.08239" lon="6.69611">
        <ele>689</ele>
        <time>2021-10-02T17:21:43Z</time>
      </trkpt>
      <trkpt lat="46.08241" lon="6.69626">
        <ele>689</ele>
        <time>2021-10-02T17:21:48Z</time>
      </trkpt>
      <trkpt lat="46.08242" lon="6.69651">
        <ele>689.1</ele>
        <time>2021-10-02T17:21:53Z</time>
      </trkpt>
      <trkpt lat="46.08232" lon="6.69679">
        <ele>688.7</ele>
        <time>2021-10-02T17:21:58Z</time>
      </trkpt>
      <trkpt lat="46.08224" lon="6.69709">
        <ele>687.9</ele>
        <time>2021-10-02T17:22:03Z</time>
      </trkpt>
      <trkpt lat="46.08221" lon="6.69724">
        <ele>687.6</ele>
        <time>2021-10-02T17:22:08Z</time>
      </trkpt>
      <trkpt lat="46.08214" lon="6.69737">
        <ele>687.5</ele>
        <time>2021-10-02T17:22:13Z</time>
      </trkpt>
      <trkpt lat="46.08203" lon="6.69756">
        <ele>687.8</ele>
        <time>2021-10-02T17:22:18Z</time>
      </trkpt>
      <trkpt lat="46.08195" lon="6.69776">
        <ele>688.2</ele>
        <time>2021-10-02T17:22:23Z</time>
      </trkpt>
      <trkpt lat="46.08188" lon="6.69786">
        <ele>688.6</ele>
        <time>2021-10-02T17:22:28Z</time>
      </trkpt>
      <trkpt lat="46.0818" lon="6.698">
        <ele>689.1</ele>
        <time>2021-10-02T17:22:33Z</time>
      </trkpt>
      <trkpt lat="46.08177" lon="6.69811">
        <ele>689.3</ele>
        <time>2021-10-02T17:22:38Z</time>
      </trkpt>
      <trkpt lat="46.08172" lon="6.69831">
        <ele>689.7</ele>
        <time>2021-10-02T17:22:43Z</time>
      </trkpt>
      <trkpt lat="46.08164" lon="6.69844">
        <ele>690.1</ele>
        <time>2021-10-02T17:22:48Z</time>
      </trkpt>
      <trkpt lat="46.08156" lon="6.69862">
        <ele>690.5</ele>
        <time>2021-10-02T17:22:53Z</time>
      </trkpt>
      <trkpt lat="46.08153" lon="6.69877">
        <ele>690.7</ele>
        <time>2021-10-02T17:22:58Z</time>
      </trkpt>
      <trkpt lat="46.08154" lon="6.699">
        <ele>690.8</ele>
        <time>2021-10-02T17:23:03Z</time>
      </trkpt>
      <trkpt lat="46.08153" lon="6.69913">
        <ele>690.8</ele>
        <time>2021-10-02T17:23:08Z</time>
      </trkpt>
      <trkpt lat="46.0815" lon="6.69935">
        <ele>690.9</ele>
        <time>2021-10-02T17:23:13Z</time>
      </trkpt>
      <trkpt lat="46.08148" lon="6.69946">
        <ele>691</ele>
        <time>2021-10-02T17:23:18Z</time>
      </trkpt>
      <trkpt lat="46.08143" lon="6.69966">
        <ele>691.3</ele>
        <time>2021-10-02T17:23:23Z</time>
      </trkpt>
      <trkpt lat="46.0814" lon="6.69981">
        <ele>691.6</ele>
        <time>2021-10-02T17:23:28Z</time>
      </trkpt>
      <trkpt lat="46.0814" lon="6.7">
        <ele>691.6</ele>
        <time>2021-10-02T17:23:33Z</time>
      </trkpt>
      <trkpt lat="46.08146" lon="6.70013">
        <ele>690.4</ele>
        <time>2021-10-02T17:23:38Z</time>
      </trkpt>
      <trkpt lat="46.08158" lon="6.7004">
        <ele>687.6</ele>
        <time>2021-10-02T17:23:46Z</time>
      </trkpt>
      <trkpt lat="46.08148" lon="6.70053">
        <ele>688</ele>
        <time>2021-10-02T17:23:51Z</time>
      </trkpt>
      <trkpt lat="46.08141" lon="6.7006">
        <ele>688.6</ele>
        <time>2021-10-02T17:23:56Z</time>
      </trkpt>
      <trkpt lat="46.0813" lon="6.70078">
        <ele>689.1</ele>
        <time>2021-10-02T17:24:01Z</time>
      </trkpt>
      <trkpt lat="46.08126" lon="6.70092">
        <ele>689.2</ele>
        <time>2021-10-02T17:24:06Z</time>
      </trkpt>
      <trkpt lat="46.08115" lon="6.70109">
        <ele>690.1</ele>
        <time>2021-10-02T17:24:11Z</time>
      </trkpt>
      <trkpt lat="46.08107" lon="6.70119">
        <ele>690.9</ele>
        <time>2021-10-02T17:24:16Z</time>
      </trkpt>
      <trkpt lat="46.08098" lon="6.70136">
        <ele>691.4</ele>
        <time>2021-10-02T17:24:21Z</time>
      </trkpt>
      <trkpt lat="46.0809" lon="6.70144">
        <ele>692.1</ele>
        <time>2021-10-02T17:24:26Z</time>
      </trkpt>
      <trkpt lat="46.08078" lon="6.70143">
        <ele>693.1</ele>
        <time>2021-10-02T17:24:31Z</time>
      </trkpt>
      <trkpt lat="46.08069" lon="6.70142">
        <ele>693.5</ele>
        <time>2021-10-02T17:24:36Z</time>
      </trkpt>
      <trkpt lat="46.08064" lon="6.70151">
        <ele>693.5</ele>
        <time>2021-10-02T17:24:41Z</time>
      </trkpt>
      <trkpt lat="46.08059" lon="6.7016">
        <ele>693.4</ele>
        <time>2021-10-02T17:24:46Z</time>
      </trkpt>
      <trkpt lat="46.08052" lon="6.70179">
        <ele>692.9</ele>
        <time>2021-10-02T17:24:51Z</time>
      </trkpt>
      <trkpt lat="46.08048" lon="6.70193">
        <ele>692.4</ele>
        <time>2021-10-02T17:24:56Z</time>
      </trkpt>
      <trkpt lat="46.08046" lon="6.70213">
        <ele>691.5</ele>
        <time>2021-10-02T17:25:01Z</time>
      </trkpt>
      <trkpt lat="46.08049" lon="6.70227">
        <ele>690.5</ele>
        <time>2021-10-02T17:25:06Z</time>
      </trkpt>
      <trkpt lat="46.08052" lon="6.7024">
        <ele>689.5</ele>
        <time>2021-10-02T17:25:11Z</time>
      </trkpt>
      <trkpt lat="46.08047" lon="6.70257">
        <ele>689.5</ele>
        <time>2021-10-02T17:25:16Z</time>
      </trkpt>
      <trkpt lat="46.08037" lon="6.70274">
        <ele>690.7</ele>
        <time>2021-10-02T17:25:21Z</time>
      </trkpt>
      <trkpt lat="46.08033" lon="6.70287">
        <ele>691.4</ele>
        <time>2021-10-02T17:25:26Z</time>
      </trkpt>
      <trkpt lat="46.08027" lon="6.70306">
        <ele>692.5</ele>
        <time>2021-10-02T17:25:31Z</time>
      </trkpt>
      <trkpt lat="46.0802" lon="6.70318">
        <ele>694</ele>
        <time>2021-10-02T17:25:36Z</time>
      </trkpt>
      <trkpt lat="46.08012" lon="6.70336">
        <ele>695.9</ele>
        <time>2021-10-02T17:25:41Z</time>
      </trkpt>
      <trkpt lat="46.08004" lon="6.7035">
        <ele>697.5</ele>
        <time>2021-10-02T17:25:46Z</time>
      </trkpt>
      <trkpt lat="46.07998" lon="6.70371">
        <ele>698.5</ele>
        <time>2021-10-02T17:25:51Z</time>
      </trkpt>
      <trkpt lat="46.07999" lon="6.70387">
        <ele>698.7</ele>
        <time>2021-10-02T17:25:56Z</time>
      </trkpt>
      <trkpt lat="46.08002" lon="6.7041">
        <ele>698.5</ele>
        <time>2021-10-02T17:26:01Z</time>
      </trkpt>
      <trkpt lat="46.08" lon="6.70424">
        <ele>699</ele>
        <time>2021-10-02T17:26:06Z</time>
      </trkpt>
      <trkpt lat="46.07999" lon="6.70448">
        <ele>699</ele>
        <time>2021-10-02T17:26:11Z</time>
      </trkpt>
      <trkpt lat="46.08003" lon="6.70464">
        <ele>698.7</ele>
        <time>2021-10-02T17:26:16Z</time>
      </trkpt>
      <trkpt lat="46.08005" lon="6.70489">
        <ele>698.5</ele>
        <time>2021-10-02T17:26:21Z</time>
      </trkpt>
      <trkpt lat="46.08002" lon="6.70503">
        <ele>698.7</ele>
        <time>2021-10-02T17:26:26Z</time>
      </trkpt>
      <trkpt lat="46.08013" lon="6.70518">
        <ele>697.4</ele>
        <time>2021-10-02T17:26:31Z</time>
      </trkpt>
      <trkpt lat="46.08021" lon="6.70528">
        <ele>696.8</ele>
        <time>2021-10-02T17:26:36Z</time>
      </trkpt>
      <trkpt lat="46.08028" lon="6.70535">
        <ele>696.6</ele>
        <time>2021-10-02T17:26:41Z</time>
      </trkpt>
      <trkpt lat="46.08039" lon="6.70545">
        <ele>696.6</ele>
        <time>2021-10-02T17:26:46Z</time>
      </trkpt>
      <trkpt lat="46.08049" lon="6.70556">
        <ele>697.2</ele>
        <time>2021-10-02T17:26:51Z</time>
      </trkpt>
      <trkpt lat="46.08055" lon="6.7056">
        <ele>697.5</ele>
        <time>2021-10-02T17:26:56Z</time>
      </trkpt>
      <trkpt lat="46.08056" lon="6.70576">
        <ele>698.6</ele>
        <time>2021-10-02T17:27:01Z</time>
      </trkpt>
      <trkpt lat="46.0805" lon="6.70587">
        <ele>698.7</ele>
        <time>2021-10-02T17:27:06Z</time>
      </trkpt>
      <trkpt lat="46.08041" lon="6.70606">
        <ele>698.8</ele>
        <time>2021-10-02T17:27:11Z</time>
      </trkpt>
      <trkpt lat="46.08038" lon="6.70619">
        <ele>699</ele>
        <time>2021-10-02T17:27:16Z</time>
      </trkpt>
      <trkpt lat="46.08039" lon="6.70642">
        <ele>699.8</ele>
        <time>2021-10-02T17:27:21Z</time>
      </trkpt>
      <trkpt lat="46.08036" lon="6.70656">
        <ele>699.9</ele>
        <time>2021-10-02T17:27:26Z</time>
      </trkpt>
      <trkpt lat="46.08029" lon="6.70675">
        <ele>699.7</ele>
        <time>2021-10-02T17:27:31Z</time>
      </trkpt>
      <trkpt lat="46.08023" lon="6.70687">
        <ele>699.5</ele>
        <time>2021-10-02T17:27:36Z</time>
      </trkpt>
      <trkpt lat="46.08016" lon="6.70708">
        <ele>699.5</ele>
        <time>2021-10-02T17:27:41Z</time>
      </trkpt>
      <trkpt lat="46.08017" lon="6.70722">
        <ele>700.2</ele>
        <time>2021-10-02T17:27:46Z</time>
      </trkpt>
      <trkpt lat="46.0802" lon="6.70745">
        <ele>701.3</ele>
        <time>2021-10-02T17:27:51Z</time>
      </trkpt>
      <trkpt lat="46.08016" lon="6.70761">
        <ele>701.5</ele>
        <time>2021-10-02T17:27:56Z</time>
      </trkpt>
      <trkpt lat="46.08008" lon="6.70772">
        <ele>701.5</ele>
        <time>2021-10-02T17:28:01Z</time>
      </trkpt>
      <trkpt lat="46.07999" lon="6.7078">
        <ele>701.4</ele>
        <time>2021-10-02T17:28:06Z</time>
      </trkpt>
      <trkpt lat="46.07993" lon="6.70791">
        <ele>701.4</ele>
        <time>2021-10-02T17:28:11Z</time>
      </trkpt>
      <trkpt lat="46.07986" lon="6.7081">
        <ele>701.5</ele>
        <time>2021-10-02T17:28:16Z</time>
      </trkpt>
      <trkpt lat="46.07979" lon="6.7082">
        <ele>701.2</ele>
        <time>2021-10-02T17:28:21Z</time>
      </trkpt>
      <trkpt lat="46.07971" lon="6.70838">
        <ele>700.4</ele>
        <time>2021-10-02T17:28:26Z</time>
      </trkpt>
      <trkpt lat="46.07961" lon="6.70855">
        <ele>698.9</ele>
        <time>2021-10-02T17:28:31Z</time>
      </trkpt>
      <trkpt lat="46.07953" lon="6.70864">
        <ele>697.9</ele>
        <time>2021-10-02T17:28:36Z</time>
      </trkpt>
      <trkpt lat="46.07947" lon="6.70877">
        <ele>697</ele>
        <time>2021-10-02T17:28:41Z</time>
      </trkpt>
      <trkpt lat="46.0794" lon="6.70888">
        <ele>696.2</ele>
        <time>2021-10-02T17:28:46Z</time>
      </trkpt>
      <trkpt lat="46.07932" lon="6.70904">
        <ele>695.3</ele>
        <time>2021-10-02T17:28:51Z</time>
      </trkpt>
      <trkpt lat="46.07926" lon="6.70917">
        <ele>694.7</ele>
        <time>2021-10-02T17:28:56Z</time>
      </trkpt>
      <trkpt lat="46.07916" lon="6.70933">
        <ele>694.2</ele>
        <time>2021-10-02T17:29:01Z</time>
      </trkpt>
      <trkpt lat="46.07912" lon="6.70942">
        <ele>694.5</ele>
        <time>2021-10-02T17:29:06Z</time>
      </trkpt>
      <trkpt lat="46.07904" lon="6.7096">
        <ele>695</ele>
        <time>2021-10-02T17:29:11Z</time>
      </trkpt>
      <trkpt lat="46.07897" lon="6.70972">
        <ele>695.3</ele>
        <time>2021-10-02T17:29:16Z</time>
      </trkpt>
      <trkpt lat="46.07888" lon="6.7099">
        <ele>695.6</ele>
        <time>2021-10-02T17:29:21Z</time>
      </trkpt>
      <trkpt lat="46.07887" lon="6.71003">
        <ele>695.6</ele>
        <time>2021-10-02T17:29:26Z</time>
      </trkpt>
      <trkpt lat="46.07899" lon="6.71023">
        <ele>694.9</ele>
        <time>2021-10-02T17:29:31Z</time>
      </trkpt>
      <trkpt lat="46.07902" lon="6.71035">
        <ele>694.5</ele>
        <time>2021-10-02T17:29:36Z</time>
      </trkpt>
      <trkpt lat="46.07897" lon="6.71047">
        <ele>694.4</ele>
        <time>2021-10-02T17:29:41Z</time>
      </trkpt>
      <trkpt lat="46.07896" lon="6.71061">
        <ele>694</ele>
        <time>2021-10-02T17:29:46Z</time>
      </trkpt>
      <trkpt lat="46.07894" lon="6.71072">
        <ele>693.8</ele>
        <time>2021-10-02T17:29:51Z</time>
      </trkpt>
      <trkpt lat="46.07894" lon="6.71089">
        <ele>693.5</ele>
        <time>2021-10-02T17:29:56Z</time>
      </trkpt>
      <trkpt lat="46.0789" lon="6.71103">
        <ele>693.5</ele>
        <time>2021-10-02T17:30:01Z</time>
      </trkpt>
      <trkpt lat="46.07888" lon="6.71117">
        <ele>693.4</ele>
        <time>2021-10-02T17:30:06Z</time>
      </trkpt>
      <trkpt lat="46.07888" lon="6.71137">
        <ele>693.3</ele>
        <time>2021-10-02T17:30:11Z</time>
      </trkpt>
      <trkpt lat="46.07888" lon="6.71151">
        <ele>693.2</ele>
        <time>2021-10-02T17:30:16Z</time>
      </trkpt>
      <trkpt lat="46.07886" lon="6.71169">
        <ele>693.3</ele>
        <time>2021-10-02T17:30:21Z</time>
      </trkpt>
      <trkpt lat="46.07886" lon="6.71183">
        <ele>693.5</ele>
        <time>2021-10-02T17:30:26Z</time>
      </trkpt>
      <trkpt lat="46.07886" lon="6.71205">
        <ele>693.9</ele>
        <time>2021-10-02T17:30:31Z</time>
      </trkpt>
      <trkpt lat="46.07886" lon="6.7122">
        <ele>694.3</ele>
        <time>2021-10-02T17:30:36Z</time>
      </trkpt>
      <trkpt lat="46.07885" lon="6.71242">
        <ele>694.7</ele>
        <time>2021-10-02T17:30:41Z</time>
      </trkpt>
      <trkpt lat="46.07894" lon="6.71253">
        <ele>694.4</ele>
        <time>2021-10-02T17:30:46Z</time>
      </trkpt>
      <trkpt lat="46.0791" lon="6.71263">
        <ele>693.5</ele>
        <time>2021-10-02T17:30:51Z</time>
      </trkpt>
      <trkpt lat="46.07919" lon="6.7127">
        <ele>693.1</ele>
        <time>2021-10-02T17:30:56Z</time>
      </trkpt>
      <trkpt lat="46.07933" lon="6.71283">
        <ele>692.7</ele>
        <time>2021-10-02T17:31:01Z</time>
      </trkpt>
      <trkpt lat="46.07941" lon="6.71294">
        <ele>692.5</ele>
        <time>2021-10-02T17:31:06Z</time>
      </trkpt>
      <trkpt lat="46.07941" lon="6.71316">
        <ele>692.9</ele>
        <time>2021-10-02T17:31:11Z</time>
      </trkpt>
      <trkpt lat="46.07936" lon="6.7133">
        <ele>693.3</ele>
        <time>2021-10-02T17:31:16Z</time>
      </trkpt>
      <trkpt lat="46.07933" lon="6.71344">
        <ele>693.4</ele>
        <time>2021-10-02T17:31:21Z</time>
      </trkpt>
      <trkpt lat="46.07927" lon="6.71364">
        <ele>693.6</ele>
        <time>2021-10-02T17:31:26Z</time>
      </trkpt>
      <trkpt lat="46.07923" lon="6.71384">
        <ele>693.7</ele>
        <time>2021-10-02T17:31:31Z</time>
      </trkpt>
      <trkpt lat="46.07914" lon="6.71395">
        <ele>694</ele>
        <time>2021-10-02T17:31:36Z</time>
      </trkpt>
      <trkpt lat="46.07911" lon="6.71414">
        <ele>693.9</ele>
        <time>2021-10-02T17:31:41Z</time>
      </trkpt>
      <trkpt lat="46.07912" lon="6.71428">
        <ele>693.9</ele>
        <time>2021-10-02T17:31:46Z</time>
      </trkpt>
      <trkpt lat="46.07913" lon="6.71446">
        <ele>693.9</ele>
        <time>2021-10-02T17:31:51Z</time>
      </trkpt>
      <trkpt lat="46.0791" lon="6.7146">
        <ele>693.9</ele>
        <time>2021-10-02T17:31:56Z</time>
      </trkpt>
      <trkpt lat="46.07918" lon="6.71475">
        <ele>693.9</ele>
        <time>2021-10-02T17:32:01Z</time>
      </trkpt>
      <trkpt lat="46.07929" lon="6.7148">
        <ele>693.4</ele>
        <time>2021-10-02T17:32:06Z</time>
      </trkpt>
      <trkpt lat="46.07943" lon="6.71488">
        <ele>692.7</ele>
        <time>2021-10-02T17:32:11Z</time>
      </trkpt>
      <trkpt lat="46.07954" lon="6.71494">
        <ele>692.2</ele>
        <time>2021-10-02T17:32:16Z</time>
      </trkpt>
      <trkpt lat="46.07969" lon="6.71501">
        <ele>691.5</ele>
        <time>2021-10-02T17:32:21Z</time>
      </trkpt>
      <trkpt lat="46.07981" lon="6.71504">
        <ele>690.9</ele>
        <time>2021-10-02T17:32:26Z</time>
      </trkpt>
      <trkpt lat="46.07997" lon="6.71496">
        <ele>690.2</ele>
        <time>2021-10-02T17:32:31Z</time>
      </trkpt>
      <trkpt lat="46.08009" lon="6.71494">
        <ele>689.8</ele>
        <time>2021-10-02T17:32:36Z</time>
      </trkpt>
      <trkpt lat="46.08024" lon="6.71504">
        <ele>689.5</ele>
        <time>2021-10-02T17:32:41Z</time>
      </trkpt>
      <trkpt lat="46.08037" lon="6.71508">
        <ele>689.3</ele>
        <time>2021-10-02T17:32:46Z</time>
      </trkpt>
      <trkpt lat="46.0805" lon="6.71514">
        <ele>689.1</ele>
        <time>2021-10-02T17:32:51Z</time>
      </trkpt>
    </trkseg>
  </trk>
</gpx>